Time,TemperatureF,DewpointF,PressureIn,WindDirection,WindDirectionDegrees,WindSpeedMPH,WindSpeedGustMPH,Humidity,HourlyPrecipIn,Conditions,Clouds,dailyrainin,SoftwareType,DateUTC
2013-01-15 00:00:00,40.1,25.7,0.00,West,261,0.0,0.0,56,0.00,,,0.00,VWS V14.01,2013-01-15 05:00:00,
2013-01-15 00:01:00,40.1,25.7,0.00,West,261,0.0,0.0,56,0.00,,,0.00,VWS V14.01,2013-01-15 05:01:00,
2013-01-15 00:02:00,40.1,25.7,0.00,West,261,0.0,0.0,56,0.00,,,0.00,VWS V14.01,2013-01-15 05:02:00,
2013-01-15 00:06:00,39.9,25.5,0.00,West,261,0.0,0.0,56,0.00,,,0.00,VWS V14.01,2013-01-15 05:06:00,
2013-01-15 00:07:00,39.9,25.5,0.00,West,261,0.0,0.0,56,0.00,,,0.00,VWS V14.01,2013-01-15 05:07:00,
2013-01-15 00:08:00,39.9,25.9,0.00,West,261,0.0,0.0,57,0.00,,,0.00,VWS V14.01,2013-01-15 05:08:00,
2013-01-15 00:12:00,39.9,25.9,0.00,West,261,0.0,0.0,57,0.00,,,0.00,VWS V14.01,2013-01-15 05:12:00,
2013-01-15 00:13:00,39.9,25.9,0.00,West,261,0.0,0.0,57,0.00,,,0.00,VWS V14.01,2013-01-15 05:13:00,
2013-01-15 00:14:00,39.9,25.9,0.00,West,261,0.0,0.0,57,0.00,,,0.00,VWS V14.01,2013-01-15 05:14:00,
2013-01-15 00:18:00,39.9,25.9,0.00,West,261,0.0,0.0,57,0.00,,,0.00,VWS V14.01,2013-01-15 05:18:00,
2013-01-15 00:19:00,39.9,25.9,0.00,West,261,0.0,0.0,57,0.00,,,0.00,VWS V14.01,2013-01-15 05:19:00,
2013-01-15 00:20:00,39.9,25.9,0.00,West,261,0.0,0.0,57,0.00,,,0.00,VWS V14.01,2013-01-15 05:20:00,
2013-01-15 00:24:00,39.9,26.4,0.00,West,261,0.0,0.0,58,0.00,,,0.00,VWS V14.01,2013-01-15 05:24:00,
2013-01-15 00:25:00,39.9,26.4,0.00,West,261,0.0,0.0,58,0.00,,,0.00,VWS V14.01,2013-01-15 05:25:00,
2013-01-15 00:29:00,39.9,26.4,0.00,West,261,0.0,0.0,58,0.00,,,0.00,VWS V14.01,2013-01-15 05:29:00,
2013-01-15 00:30:00,39.9,26.4,0.00,West,261,0.0,0.0,58,0.00,,,0.00,VWS V14.01,2013-01-15 05:30:00,
2013-01-15 00:32:00,39.9,26.4,0.00,West,261,0.0,0.0,58,0.00,,,0.00,VWS V14.01,2013-01-15 05:32:00,
2013-01-15 00:35:00,39.9,26.8,0.00,West,261,0.0,0.0,59,0.00,,,0.00,VWS V14.01,2013-01-15 05:35:00,
2013-01-15 00:36:00,39.9,26.8,0.00,West,261,0.0,0.0,59,0.00,,,0.00,VWS V14.01,2013-01-15 05:36:00,
2013-01-15 00:40:00,39.9,26.8,0.00,West,261,0.0,0.0,59,0.00,,,0.00,VWS V14.01,2013-01-15 05:40:00,
2013-01-15 00:41:00,39.9,26.8,0.00,West,261,0.0,0.0,59,0.00,,,0.00,VWS V14.01,2013-01-15 05:41:00,
2013-01-15 00:44:00,39.9,26.8,0.00,West,261,0.0,0.0,59,0.00,,,0.00,VWS V14.01,2013-01-15 05:44:00,
2013-01-15 00:45:00,39.9,27.2,0.00,West,261,0.0,0.0,60,0.00,,,0.00,VWS V14.01,2013-01-15 05:45:00,
2013-01-15 00:47:00,39.9,27.2,0.00,West,261,0.0,0.0,60,0.00,,,0.00,VWS V14.01,2013-01-15 05:47:00,
2013-01-15 00:48:00,39.9,27.2,0.00,West,261,0.0,0.0,60,0.00,,,0.00,VWS V14.01,2013-01-15 05:48:00,
2013-01-15 00:49:00,39.9,27.2,0.00,West,261,0.0,0.0,60,0.00,,,0.00,VWS V14.01,2013-01-15 05:49:00,
2013-01-15 00:52:00,39.9,27.6,0.00,West,261,0.0,0.0,61,0.00,,,0.00,VWS V14.01,2013-01-15 05:52:00,
2013-01-15 00:53:00,39.9,27.6,0.00,West,261,0.0,0.0,61,0.00,,,0.00,VWS V14.01,2013-01-15 05:53:00,
2013-01-15 00:54:00,39.9,28.0,0.00,West,261,0.0,0.0,62,0.00,,,0.00,VWS V14.01,2013-01-15 05:54:00,
2013-01-15 00:57:00,39.7,27.8,0.00,West,261,0.0,2.2,62,0.00,,,0.00,VWS V14.01,2013-01-15 05:57:00,
2013-01-15 00:59:00,39.7,27.8,0.00,West,261,0.0,0.0,62,0.00,,,0.00,VWS V14.01,2013-01-15 05:59:00,
2013-01-15 01:00:00,39.7,27.8,0.00,West,261,0.0,0.0,62,0.00,,,0.00,VWS V14.01,2013-01-15 06:00:00,
2013-01-15 01:02:00,39.7,27.4,0.00,West,261,0.0,0.0,61,0.00,,,0.00,VWS V14.01,2013-01-15 06:02:00,
2013-01-15 01:05:00,39.7,27.8,0.00,West,261,0.0,0.0,62,0.00,,,0.00,VWS V14.01,2013-01-15 06:05:00,
2013-01-15 01:07:00,39.7,27.8,0.00,West,261,0.0,0.0,62,0.00,,,0.00,VWS V14.01,2013-01-15 06:07:00,
2013-01-15 01:08:00,39.7,27.8,0.00,West,261,0.0,0.0,62,0.00,,,0.00,VWS V14.01,2013-01-15 06:08:00,
2013-01-15 01:10:00,39.7,27.8,0.00,West,261,0.0,0.0,62,0.00,,,0.00,VWS V14.01,2013-01-15 06:10:00,
2013-01-15 01:12:00,39.7,27.8,0.00,West,261,0.0,0.0,62,0.00,,,0.00,VWS V14.01,2013-01-15 06:12:00,
2013-01-15 01:13:00,39.7,27.8,0.00,West,261,0.0,0.0,62,0.00,,,0.00,VWS V14.01,2013-01-15 06:13:00,
2013-01-15 01:15:00,39.7,27.8,0.00,West,261,0.0,0.0,62,0.00,,,0.00,VWS V14.01,2013-01-15 06:15:00,
2013-01-15 01:17:00,39.7,27.8,0.00,West,261,0.0,0.0,62,0.00,,,0.00,VWS V14.01,2013-01-15 06:17:00,
2013-01-15 01:18:00,39.7,27.8,0.00,West,261,0.0,0.0,62,0.00,,,0.00,VWS V14.01,2013-01-15 06:18:00,
2013-01-15 01:21:00,39.7,27.8,0.00,West,261,0.0,0.0,62,0.00,,,0.00,VWS V14.01,2013-01-15 06:21:00,
2013-01-15 01:23:00,39.7,27.8,0.00,West,261,0.0,0.0,62,0.00,,,0.00,VWS V14.01,2013-01-15 06:23:00,
2013-01-15 01:24:00,39.7,27.8,0.00,West,261,0.0,0.0,62,0.00,,,0.00,VWS V14.01,2013-01-15 06:24:00,
2013-01-15 01:29:00,39.7,27.8,0.00,West,261,0.0,0.0,62,0.00,,,0.00,VWS V14.01,2013-01-15 06:29:00,
2013-01-15 01:30:00,39.7,28.2,0.00,West,261,0.0,0.0,63,0.00,,,0.00,VWS V14.01,2013-01-15 06:30:00,
2013-01-15 01:31:00,39.7,28.2,0.00,West,261,0.0,0.0,63,0.00,,,0.00,VWS V14.01,2013-01-15 06:31:00,
2013-01-15 01:35:00,39.7,29.0,0.00,West,261,0.0,0.0,65,0.00,,,0.00,VWS V14.01,2013-01-15 06:35:00,
2013-01-15 01:36:00,39.7,29.0,0.00,West,261,0.0,0.0,65,0.00,,,0.00,VWS V14.01,2013-01-15 06:36:00,
2013-01-15 01:37:00,39.7,29.0,0.00,West,261,0.0,0.0,65,0.00,,,0.00,VWS V14.01,2013-01-15 06:37:00,
2013-01-15 01:41:00,39.9,29.5,0.00,West,260,0.0,0.0,66,0.00,,,0.00,VWS V14.01,2013-01-15 06:41:00,
2013-01-15 01:42:00,39.7,29.3,0.00,WNW,303,3.6,3.6,66,0.00,,,0.00,VWS V14.01,2013-01-15 06:42:00,
2013-01-15 01:43:00,39.7,29.7,0.00,NW,325,0.0,0.0,67,0.00,,,0.00,VWS V14.01,2013-01-15 06:43:00,
2013-01-15 01:44:00,39.7,29.7,0.00,WNW,299,2.7,2.7,67,0.00,,,0.00,VWS V14.01,2013-01-15 06:44:00,
2013-01-15 01:47:00,39.7,29.7,0.00,West,272,0.0,0.0,67,0.00,,,0.00,VWS V14.01,2013-01-15 06:47:00,
2013-01-15 01:48:00,39.7,29.3,0.00,NW,317,2.7,2.7,66,0.00,,,0.00,VWS V14.01,2013-01-15 06:48:00,
2013-01-15 01:49:00,39.7,29.3,0.00,NW,317,2.2,2.7,66,0.00,,,0.00,VWS V14.01,2013-01-15 06:49:00,
2013-01-15 01:53:00,39.6,29.1,0.00,NW,317,0.0,0.0,66,0.00,,,0.00,VWS V14.01,2013-01-15 06:53:00,
2013-01-15 01:54:00,39.4,29.0,0.00,NW,317,0.0,0.0,66,0.00,,,0.00,VWS V14.01,2013-01-15 06:54:00,
2013-01-15 01:57:00,39.4,29.0,0.00,NW,317,0.0,0.0,66,0.00,,,0.00,VWS V14.01,2013-01-15 06:57:00,
2013-01-15 01:58:00,39.4,29.0,0.00,NW,317,0.0,0.0,66,0.00,,,0.00,VWS V14.01,2013-01-15 06:58:00,
2013-01-15 02:00:00,39.2,28.8,0.00,NW,317,0.0,0.0,66,0.00,,,0.00,VWS V14.01,2013-01-15 07:00:00,
2013-01-15 02:03:00,39.2,28.8,0.00,NW,317,0.0,0.0,66,0.00,,,0.00,VWS V14.01,2013-01-15 07:03:00,
2013-01-15 02:04:00,39.2,28.8,0.00,NW,317,0.0,0.0,66,0.00,,,0.00,VWS V14.01,2013-01-15 07:04:00,
2013-01-15 02:06:00,39.0,28.6,0.00,NW,317,0.0,0.0,66,0.00,,,0.00,VWS V14.01,2013-01-15 07:06:00,
2013-01-15 02:08:00,39.0,28.6,0.00,NW,317,0.0,0.0,66,0.00,,,0.00,VWS V14.01,2013-01-15 07:08:00,
2013-01-15 02:09:00,39.0,28.6,0.00,NW,317,0.0,0.0,66,0.00,,,0.00,VWS V14.01,2013-01-15 07:09:00,
2013-01-15 02:11:00,39.0,28.6,0.00,NW,317,0.0,0.0,66,0.00,,,0.00,VWS V14.01,2013-01-15 07:11:00,
2013-01-15 02:13:00,38.8,28.5,0.00,NNE,12,0.0,3.1,66,0.00,,,0.00,VWS V14.01,2013-01-15 07:13:00,
2013-01-15 02:14:00,38.8,28.5,0.00,NNE,12,0.0,0.0,66,0.00,,,0.00,VWS V14.01,2013-01-15 07:14:00,
2013-01-15 02:15:00,38.8,28.5,0.00,NNE,12,0.0,0.0,66,0.00,,,0.00,VWS V14.01,2013-01-15 07:15:00,
2013-01-15 02:17:00,38.8,28.5,0.00,NW,306,2.7,2.7,66,0.00,,,0.00,VWS V14.01,2013-01-15 07:17:00,
2013-01-15 02:20:00,38.8,29.2,0.00,NW,311,3.1,3.6,68,0.00,,,0.00,VWS V14.01,2013-01-15 07:20:00,
2013-01-15 02:22:00,38.8,29.2,0.00,NW,311,0.0,0.0,68,0.00,,,0.00,VWS V14.01,2013-01-15 07:22:00,
2013-01-15 02:23:00,38.8,29.2,0.00,North,357,0.0,2.7,68,0.00,,,0.00,VWS V14.01,2013-01-15 07:23:00,
2013-01-15 02:25:00,38.8,29.2,0.00,NW,324,2.7,3.1,68,0.00,,,0.00,VWS V14.01,2013-01-15 07:25:00,
2013-01-15 02:28:00,38.7,29.0,0.00,North,349,0.0,0.0,68,0.00,,,0.00,VWS V14.01,2013-01-15 07:28:00,
2013-01-15 02:29:00,38.7,29.0,0.00,NNW,336,0.0,0.0,68,0.00,,,0.00,VWS V14.01,2013-01-15 07:29:00,
2013-01-15 02:30:00,38.7,29.0,0.00,North,353,3.6,3.6,68,0.00,,,0.00,VWS V14.01,2013-01-15 07:30:00,
2013-01-15 02:31:00,38.7,29.0,0.00,North,353,0.0,3.6,68,0.00,,,0.00,VWS V14.01,2013-01-15 07:31:00,
2013-01-15 02:34:00,38.7,29.0,0.00,NNW,337,2.7,2.7,68,0.00,,,0.00,VWS V14.01,2013-01-15 07:34:00,
2013-01-15 02:35:00,38.7,29.0,0.00,North,2,0.0,2.7,68,0.00,,,0.00,VWS V14.01,2013-01-15 07:35:00,
2013-01-15 02:36:00,38.7,29.0,0.00,North,2,0.0,2.7,68,0.00,,,0.00,VWS V14.01,2013-01-15 07:36:00,
2013-01-15 02:38:00,38.5,28.9,0.00,NW,326,0.0,2.2,68,0.00,,,0.00,VWS V14.01,2013-01-15 07:38:00,
2013-01-15 02:40:00,38.5,28.9,0.00,NW,321,2.7,3.1,68,0.00,,,0.00,VWS V14.01,2013-01-15 07:40:00,
2013-01-15 02:41:00,38.5,28.9,0.00,NNW,344,3.1,3.1,68,0.00,,,0.00,VWS V14.01,2013-01-15 07:41:00,
2013-01-15 02:43:00,38.5,28.9,0.00,NW,305,0.0,0.0,68,0.00,,,0.00,VWS V14.01,2013-01-15 07:43:00,
2013-01-15 02:45:00,38.5,29.2,0.00,NW,319,0.0,3.6,69,0.00,,,0.00,VWS V14.01,2013-01-15 07:45:00,
2013-01-15 02:46:00,38.5,29.2,0.00,NW,319,0.0,3.6,69,0.00,,,0.00,VWS V14.01,2013-01-15 07:46:00,
2013-01-15 02:50:00,38.3,29.0,0.00,NW,323,0.0,2.2,69,0.00,,,0.00,VWS V14.01,2013-01-15 07:50:00,
2013-01-15 02:51:00,38.3,29.0,0.00,NW,323,0.0,2.2,69,0.00,,,0.00,VWS V14.01,2013-01-15 07:51:00,
2013-01-15 02:52:00,38.3,29.0,0.00,North,353,4.9,4.9,69,0.00,,,0.00,VWS V14.01,2013-01-15 07:52:00,
2013-01-15 02:56:00,38.3,29.0,0.00,NNW,343,4.0,4.0,69,0.00,,,0.00,VWS V14.01,2013-01-15 07:56:00,
2013-01-15 02:57:00,38.3,29.0,0.00,NNW,343,4.0,4.0,69,0.00,,,0.00,VWS V14.01,2013-01-15 07:57:00,
2013-01-15 02:58:00,38.3,29.0,0.00,North,1,3.1,4.0,69,0.00,,,0.00,VWS V14.01,2013-01-15 07:58:00,
2013-01-15 03:02:00,38.5,29.2,0.00,East,100,2.7,3.6,69,0.00,,,0.00,VWS V14.01,2013-01-15 08:02:00,
2013-01-15 03:03:00,38.3,29.0,0.00,East,100,0.0,2.7,69,0.00,,,0.00,VWS V14.01,2013-01-15 08:03:00,
2013-01-15 03:04:00,38.3,29.0,0.00,East,100,0.0,2.2,69,0.00,,,0.00,VWS V14.01,2013-01-15 08:04:00,
2013-01-15 03:05:00,38.3,29.0,0.00,NW,320,0.0,2.7,69,0.00,,,0.00,VWS V14.01,2013-01-15 08:05:00,
2013-01-15 03:07:00,38.3,29.0,0.00,NW,320,0.0,0.0,69,0.00,,,0.00,VWS V14.01,2013-01-15 08:07:00,
2013-01-15 03:09:00,38.1,28.9,0.00,NNE,19,2.7,2.7,69,0.00,,,0.00,VWS V14.01,2013-01-15 08:09:00,
2013-01-15 03:12:00,38.1,28.9,0.00,NNE,19,0.0,0.0,69,0.00,,,0.00,VWS V14.01,2013-01-15 08:12:00,
2013-01-15 03:13:00,38.1,28.9,0.00,NNE,19,0.0,0.0,69,0.00,,,0.00,VWS V14.01,2013-01-15 08:13:00,
2013-01-15 03:14:00,38.1,28.9,0.00,NNE,19,0.0,0.0,69,0.00,,,0.00,VWS V14.01,2013-01-15 08:14:00,
2013-01-15 03:16:00,38.1,28.9,0.00,NNE,19,0.0,0.0,69,0.00,,,0.00,VWS V14.01,2013-01-15 08:16:00,
2013-01-15 03:18:00,38.1,28.9,0.00,NNE,19,0.0,0.0,69,0.00,,,0.00,VWS V14.01,2013-01-15 08:18:00,
2013-01-15 03:19:00,38.1,28.9,0.00,NNE,19,0.0,0.0,69,0.00,,,0.00,VWS V14.01,2013-01-15 08:19:00,
2013-01-15 03:22:00,38.1,28.9,0.00,NNE,19,0.0,0.0,69,0.00,,,0.00,VWS V14.01,2013-01-15 08:22:00,
2013-01-15 03:23:00,38.1,28.9,0.00,NNE,19,0.0,0.0,69,0.00,,,0.00,VWS V14.01,2013-01-15 08:23:00,
2013-01-15 03:25:00,38.1,28.9,0.00,NNE,19,0.0,0.0,69,0.00,,,0.00,VWS V14.01,2013-01-15 08:25:00,
2013-01-15 03:27:00,38.1,28.9,0.00,NNE,19,0.0,0.0,69,0.00,,,0.00,VWS V14.01,2013-01-15 08:27:00,
2013-01-15 03:29:00,38.1,28.9,0.00,NNE,19,0.0,0.0,69,0.00,,,0.00,VWS V14.01,2013-01-15 08:29:00,
2013-01-15 03:30:00,38.1,28.9,0.00,NNE,19,0.0,0.0,69,0.00,,,0.00,VWS V14.01,2013-01-15 08:30:00,
2013-01-15 03:33:00,38.3,29.0,0.00,NNE,19,0.0,3.1,69,0.00,,,0.00,VWS V14.01,2013-01-15 08:33:00,
2013-01-15 03:34:00,38.3,29.0,0.00,NNE,19,0.0,0.0,69,0.00,,,0.00,VWS V14.01,2013-01-15 08:34:00,
2013-01-15 03:35:00,38.3,29.0,0.00,NNE,19,0.0,0.0,69,0.00,,,0.00,VWS V14.01,2013-01-15 08:35:00,
2013-01-15 03:38:00,38.3,29.0,0.00,NNE,19,0.0,0.0,69,0.00,,,0.00,VWS V14.01,2013-01-15 08:38:00,
2013-01-15 03:39:00,38.3,29.0,0.00,NNE,19,0.0,0.0,69,0.00,,,0.00,VWS V14.01,2013-01-15 08:39:00,
2013-01-15 03:40:00,38.3,29.0,0.00,NNE,19,0.0,0.0,69,0.00,,,0.00,VWS V14.01,2013-01-15 08:40:00,
2013-01-15 03:43:00,38.5,29.2,0.00,NNE,33,2.2,2.2,69,0.00,,,0.00,VWS V14.01,2013-01-15 08:43:00,
2013-01-15 03:44:00,38.3,29.0,0.00,NNE,33,0.0,0.0,69,0.00,,,0.00,VWS V14.01,2013-01-15 08:44:00,
2013-01-15 03:46:00,38.3,29.0,0.00,ENE,71,0.0,3.1,69,0.00,,,0.00,VWS V14.01,2013-01-15 08:46:00,
2013-01-15 03:48:00,38.3,29.0,0.00,NE,42,0.0,0.0,69,0.00,,,0.00,VWS V14.01,2013-01-15 08:48:00,
2013-01-15 03:49:00,38.3,29.0,0.00,NE,42,0.0,0.0,69,0.00,,,0.00,VWS V14.01,2013-01-15 08:49:00,
2013-01-15 03:52:00,38.3,29.0,0.00,NE,42,0.0,0.0,69,0.00,,,0.00,VWS V14.01,2013-01-15 08:52:00,
2013-01-15 03:54:00,38.3,29.0,0.00,NE,42,0.0,0.0,69,0.00,,,0.00,VWS V14.01,2013-01-15 08:54:00,
2013-01-15 03:55:00,38.3,29.0,0.00,NE,42,0.0,0.0,69,0.00,,,0.00,VWS V14.01,2013-01-15 08:55:00,
2013-01-15 03:59:00,38.3,29.0,0.00,NNE,27,0.0,0.0,69,0.00,,,0.00,VWS V14.01,2013-01-15 08:59:00,
2013-01-15 04:00:00,38.3,29.0,0.00,NNE,32,0.0,2.2,69,0.00,,,0.00,VWS V14.01,2013-01-15 09:00:00,
2013-01-15 04:02:00,38.3,29.0,0.00,NNE,26,0.0,0.0,69,0.00,,,0.00,VWS V14.01,2013-01-15 09:02:00,
2013-01-15 04:04:00,38.1,28.9,0.00,NNE,26,0.0,0.0,69,0.00,,,0.00,VWS V14.01,2013-01-15 09:04:00,
2013-01-15 04:05:00,38.1,28.9,0.00,NNE,26,0.0,0.0,69,0.00,,,0.00,VWS V14.01,2013-01-15 09:05:00,
2013-01-15 04:07:00,38.1,28.9,0.00,NNE,26,0.0,0.0,69,0.00,,,0.00,VWS V14.01,2013-01-15 09:07:00,
2013-01-15 04:09:00,38.1,28.9,0.00,NNE,26,0.0,0.0,69,0.00,,,0.00,VWS V14.01,2013-01-15 09:09:00,
2013-01-15 04:11:00,38.1,28.9,0.00,NNE,26,0.0,0.0,69,0.00,,,0.00,VWS V14.01,2013-01-15 09:11:00,
2013-01-15 04:12:00,38.1,28.9,0.00,NNE,26,0.0,0.0,69,0.00,,,0.00,VWS V14.01,2013-01-15 09:12:00,
2013-01-15 04:14:00,38.1,28.9,0.00,NNE,26,0.0,0.0,69,0.00,,,0.00,VWS V14.01,2013-01-15 09:14:00,
2013-01-15 04:15:00,38.1,28.9,0.00,NNE,26,0.0,0.0,69,0.00,,,0.00,VWS V14.01,2013-01-15 09:15:00,
2013-01-15 04:17:00,38.1,28.9,0.00,North,357,2.7,2.7,69,0.00,,,0.00,VWS V14.01,2013-01-15 09:17:00,
2013-01-15 04:18:00,38.1,28.9,0.00,NNW,329,0.0,0.0,69,0.00,,,0.00,VWS V14.01,2013-01-15 09:18:00,
2013-01-15 04:19:00,38.1,28.9,0.00,NNW,329,0.0,0.0,69,0.00,,,0.00,VWS V14.01,2013-01-15 09:19:00,
2013-01-15 04:21:00,38.1,28.9,0.00,ENE,58,3.1,3.1,69,0.00,,,0.00,VWS V14.01,2013-01-15 09:21:00,
2013-01-15 04:23:00,38.1,28.9,0.00,NE,55,0.0,2.2,69,0.00,,,0.00,VWS V14.01,2013-01-15 09:23:00,
2013-01-15 04:24:00,38.1,28.9,0.00,NE,55,0.0,0.0,69,0.00,,,0.00,VWS V14.01,2013-01-15 09:24:00,
2013-01-15 04:25:00,38.1,28.9,0.00,NE,55,0.0,0.0,69,0.00,,,0.00,VWS V14.01,2013-01-15 09:25:00,
2013-01-15 04:26:00,38.1,28.9,0.00,NE,55,0.0,0.0,69,0.00,,,0.00,VWS V14.01,2013-01-15 09:26:00,
2013-01-15 04:29:00,38.1,28.9,0.00,NE,55,0.0,0.0,69,0.00,,,0.00,VWS V14.01,2013-01-15 09:29:00,
2013-01-15 04:30:00,38.1,28.9,0.00,NE,55,0.0,0.0,69,0.00,,,0.00,VWS V14.01,2013-01-15 09:30:00,
2013-01-15 04:31:00,38.1,28.9,0.00,NE,55,0.0,0.0,69,0.00,,,0.00,VWS V14.01,2013-01-15 09:31:00,
2013-01-15 04:32:00,38.1,28.9,0.00,NE,55,0.0,0.0,69,0.00,,,0.00,VWS V14.01,2013-01-15 09:32:00,
2013-01-15 04:35:00,38.1,28.9,0.00,NE,54,0.0,0.0,69,0.00,,,0.00,VWS V14.01,2013-01-15 09:35:00,
2013-01-15 04:36:00,38.1,28.9,0.00,NE,54,0.0,0.0,69,0.00,,,0.00,VWS V14.01,2013-01-15 09:36:00,
2013-01-15 04:37:00,37.9,28.7,0.00,NE,54,0.0,0.0,69,0.00,,,0.00,VWS V14.01,2013-01-15 09:37:00,
2013-01-15 04:39:00,37.9,28.7,0.00,NE,54,0.0,0.0,69,0.00,,,0.00,VWS V14.01,2013-01-15 09:39:00,
2013-01-15 04:42:00,37.9,28.7,0.00,NE,54,0.0,0.0,69,0.00,,,0.00,VWS V14.01,2013-01-15 09:42:00,
2013-01-15 04:44:00,37.9,28.7,0.00,NE,54,0.0,0.0,69,0.00,,,0.00,VWS V14.01,2013-01-15 09:44:00,
2013-01-15 04:45:00,37.9,28.7,0.00,NE,54,0.0,0.0,69,0.00,,,0.00,VWS V14.01,2013-01-15 09:45:00,
2013-01-15 04:47:00,37.9,28.7,0.00,NE,54,0.0,0.0,69,0.00,,,0.00,VWS V14.01,2013-01-15 09:47:00,
2013-01-15 04:48:00,37.9,28.7,0.00,NE,54,0.0,0.0,69,0.00,,,0.00,VWS V14.01,2013-01-15 09:48:00,
2013-01-15 04:50:00,37.9,28.7,0.00,NE,54,0.0,0.0,69,0.00,,,0.00,VWS V14.01,2013-01-15 09:50:00,
2013-01-15 04:53:00,37.9,28.7,0.00,North,7,0.0,0.0,69,0.00,,,0.00,VWS V14.01,2013-01-15 09:53:00,
2013-01-15 04:54:00,37.9,28.7,0.00,North,7,0.0,0.0,69,0.00,,,0.00,VWS V14.01,2013-01-15 09:54:00,
2013-01-15 04:56:00,37.9,28.7,0.00,North,7,0.0,0.0,69,0.00,,,0.00,VWS V14.01,2013-01-15 09:56:00,
2013-01-15 04:57:00,37.9,28.7,0.00,North,7,0.0,0.0,69,0.00,,,0.00,VWS V14.01,2013-01-15 09:57:00,
2013-01-15 04:59:00,37.9,28.7,0.00,East,81,2.7,2.7,69,0.00,,,0.00,VWS V14.01,2013-01-15 09:59:00,
2013-01-15 05:00:00,37.9,28.7,0.00,NE,48,0.0,2.7,69,0.00,,,0.00,VWS V14.01,2013-01-15 10:00:00,
2013-01-15 05:01:00,37.9,28.7,0.00,NNE,27,0.0,2.7,69,0.00,,,0.00,VWS V14.01,2013-01-15 10:01:00,
2013-01-15 05:05:00,37.9,28.7,0.00,NNE,18,0.0,4.0,69,0.00,,,0.00,VWS V14.01,2013-01-15 10:05:00,
2013-01-15 05:06:00,37.9,28.7,0.00,NNE,18,0.0,0.0,69,0.00,,,0.00,VWS V14.01,2013-01-15 10:06:00,
2013-01-15 05:10:00,37.8,28.5,0.00,NNE,19,0.0,0.0,69,0.00,,,0.00,VWS V14.01,2013-01-15 10:10:00,
2013-01-15 05:11:00,37.8,28.5,0.00,NNE,18,0.0,0.0,69,0.00,,,0.00,VWS V14.01,2013-01-15 10:11:00,
2013-01-15 05:12:00,37.8,28.5,0.00,NNE,18,2.7,3.1,69,0.00,,,0.00,VWS V14.01,2013-01-15 10:12:00,
2013-01-15 05:15:00,37.8,28.5,0.00,NNE,18,0.0,0.0,69,0.00,,,0.00,VWS V14.01,2013-01-15 10:15:00,
2013-01-15 05:17:00,37.8,28.5,0.00,NNE,18,0.0,0.0,69,0.00,,,0.00,VWS V14.01,2013-01-15 10:17:00,
2013-01-15 05:18:00,37.6,28.4,0.00,NNE,19,0.0,0.0,69,0.00,,,0.00,VWS V14.01,2013-01-15 10:18:00,
2013-01-15 05:20:00,37.6,28.4,0.00,NNE,16,3.1,3.1,69,0.00,,,0.00,VWS V14.01,2013-01-15 10:20:00,
2013-01-15 05:24:00,37.6,28.4,0.00,NNE,31,2.7,3.1,69,0.00,,,0.00,VWS V14.01,2013-01-15 10:24:00,
2013-01-15 05:25:00,37.6,28.4,0.00,NNE,24,0.0,0.0,69,0.00,,,0.00,VWS V14.01,2013-01-15 10:25:00,
2013-01-15 05:29:00,37.4,28.2,0.00,NE,38,0.0,0.0,69,0.00,,,0.00,VWS V14.01,2013-01-15 10:29:00,
2013-01-15 05:30:00,37.4,28.2,0.00,NE,38,0.0,0.0,69,0.00,,,0.00,VWS V14.01,2013-01-15 10:30:00,
2013-01-15 05:32:00,37.4,28.2,0.00,ENE,58,0.0,0.0,69,0.00,,,0.00,VWS V14.01,2013-01-15 10:32:00,
2013-01-15 05:35:00,37.4,28.2,0.00,NNE,22,2.7,3.1,69,0.00,,,0.00,VWS V14.01,2013-01-15 10:35:00,
2013-01-15 05:36:00,37.4,28.2,0.00,NNE,22,0.0,2.7,69,0.00,,,0.00,VWS V14.01,2013-01-15 10:36:00,
2013-01-15 05:38:00,37.4,28.2,0.00,NE,35,3.1,3.1,69,0.00,,,0.00,VWS V14.01,2013-01-15 10:38:00,
2013-01-15 05:40:00,37.4,28.2,0.00,NNE,31,0.0,0.0,69,0.00,,,0.00,VWS V14.01,2013-01-15 10:40:00,
2013-01-15 05:41:00,37.2,28.0,0.00,NNE,31,0.0,0.0,69,0.00,,,0.00,VWS V14.01,2013-01-15 10:41:00,
2013-01-15 05:43:00,37.2,28.0,0.00,NNE,31,0.0,0.0,69,0.00,,,0.00,VWS V14.01,2013-01-15 10:43:00,
2013-01-15 05:46:00,37.2,28.0,0.00,NNE,31,0.0,0.0,69,0.00,,,0.00,VWS V14.01,2013-01-15 10:46:00,
2013-01-15 05:47:00,37.2,28.0,0.00,NNE,31,0.0,0.0,69,0.00,,,0.00,VWS V14.01,2013-01-15 10:47:00,
2013-01-15 05:48:00,37.2,28.0,0.00,NNE,31,3.1,3.1,69,0.00,,,0.00,VWS V14.01,2013-01-15 10:48:00,
2013-01-15 05:49:00,37.2,28.0,0.00,NE,41,2.7,3.1,69,0.00,,,0.00,VWS V14.01,2013-01-15 10:49:00,
2013-01-15 05:52:00,37.2,28.0,0.00,NE,52,0.0,0.0,69,0.00,,,0.00,VWS V14.01,2013-01-15 10:52:00,
2013-01-15 05:54:00,37.2,28.0,0.00,North,7,0.0,0.0,69,0.00,,,0.00,VWS V14.01,2013-01-15 10:54:00,
2013-01-15 05:57:00,37.0,27.8,0.00,NNE,33,2.7,2.7,69,0.00,,,0.00,VWS V14.01,2013-01-15 10:57:00,
2013-01-15 05:59:00,37.0,27.8,0.00,NNE,33,0.0,0.0,69,0.00,,,0.00,VWS V14.01,2013-01-15 10:59:00,
2013-01-15 06:00:00,37.0,27.8,0.00,NNE,33,0.0,0.0,69,0.00,,,0.00,VWS V14.01,2013-01-15 11:00:00,
2013-01-15 06:01:00,37.0,27.8,0.00,NNE,33,0.0,0.0,69,0.00,,,0.00,VWS V14.01,2013-01-15 11:01:00,
2013-01-15 06:04:00,37.0,27.8,0.00,NE,49,0.0,0.0,69,0.00,,,0.00,VWS V14.01,2013-01-15 11:04:00,
2013-01-15 06:05:00,37.0,27.8,0.00,NE,49,0.0,0.0,69,0.00,,,0.00,VWS V14.01,2013-01-15 11:05:00,
2013-01-15 06:06:00,37.0,27.8,0.00,NE,49,0.0,0.0,69,0.00,,,0.00,VWS V14.01,2013-01-15 11:06:00,
2013-01-15 06:07:00,37.0,27.8,0.00,NNE,24,3.1,3.1,69,0.00,,,0.00,VWS V14.01,2013-01-15 11:07:00,
2013-01-15 06:10:00,37.0,27.8,0.00,NE,43,0.0,0.0,69,0.00,,,0.00,VWS V14.01,2013-01-15 11:10:00,
2013-01-15 06:11:00,37.0,27.8,0.00,NE,52,0.0,0.0,69,0.00,,,0.00,VWS V14.01,2013-01-15 11:11:00,
2013-01-15 06:15:00,37.0,27.8,0.00,NE,38,0.0,0.0,69,0.00,,,0.00,VWS V14.01,2013-01-15 11:15:00,
2013-01-15 06:16:00,37.0,27.8,0.00,NNE,21,3.1,3.1,69,0.00,,,0.00,VWS V14.01,2013-01-15 11:16:00,
2013-01-15 06:17:00,37.0,27.8,0.00,NE,42,2.2,3.1,69,0.00,,,0.00,VWS V14.01,2013-01-15 11:17:00,
2013-01-15 06:21:00,37.0,27.8,0.00,NNE,30,0.0,3.1,69,0.00,,,0.00,VWS V14.01,2013-01-15 11:21:00,
2013-01-15 06:22:00,36.9,27.7,0.00,NNE,22,3.1,3.1,69,0.00,,,0.00,VWS V14.01,2013-01-15 11:22:00,
2013-01-15 06:26:00,36.9,27.3,0.00,NNE,17,0.0,3.1,68,0.00,,,0.00,VWS V14.01,2013-01-15 11:26:00,
2013-01-15 06:27:00,36.9,27.3,0.00,NNE,17,0.0,0.0,68,0.00,,,0.00,VWS V14.01,2013-01-15 11:27:00,
2013-01-15 06:28:00,36.9,27.3,0.00,NE,35,0.0,0.0,68,0.00,,,0.00,VWS V14.01,2013-01-15 11:28:00,
2013-01-15 06:31:00,36.9,27.3,0.00,NE,56,0.0,2.2,68,0.00,,,0.00,VWS V14.01,2013-01-15 11:31:00,
2013-01-15 06:33:00,36.9,27.3,0.00,NNE,15,3.6,3.6,68,0.00,,,0.00,VWS V14.01,2013-01-15 11:33:00,
2013-01-15 06:34:00,36.9,27.3,0.00,NNE,32,0.0,3.1,68,0.00,,,0.00,VWS V14.01,2013-01-15 11:34:00,
2013-01-15 06:36:00,36.9,27.3,0.00,NNE,28,0.0,3.6,68,0.00,,,0.00,VWS V14.01,2013-01-15 11:36:00,
2013-01-15 06:38:00,36.9,26.9,0.00,NE,43,0.0,0.0,67,0.00,,,0.00,VWS V14.01,2013-01-15 11:38:00,
2013-01-15 06:39:00,36.9,26.9,0.00,North,0,0.0,0.0,67,0.00,,,0.00,VWS V14.01,2013-01-15 11:39:00,
2013-01-15 06:41:00,36.9,26.9,0.00,North,0,0.0,0.0,67,0.00,,,0.00,VWS V14.01,2013-01-15 11:41:00,
2013-01-15 06:44:00,36.9,26.9,0.00,NNE,29,0.0,0.0,67,0.00,,,0.00,VWS V14.01,2013-01-15 11:44:00,
2013-01-15 06:45:00,36.9,26.9,0.00,NNE,29,0.0,0.0,67,0.00,,,0.00,VWS V14.01,2013-01-15 11:45:00,
2013-01-15 06:46:00,36.9,26.9,0.00,NNE,29,0.0,0.0,67,0.00,,,0.00,VWS V14.01,2013-01-15 11:46:00,
2013-01-15 06:47:00,36.9,26.9,0.00,NNE,26,0.0,0.0,67,0.00,,,0.00,VWS V14.01,2013-01-15 11:47:00,
2013-01-15 06:51:00,36.9,26.9,0.00,NNE,26,0.0,0.0,67,0.00,,,0.00,VWS V14.01,2013-01-15 11:51:00,
2013-01-15 06:52:00,36.9,26.9,0.00,NNE,28,2.2,2.2,67,0.00,,,0.00,VWS V14.01,2013-01-15 11:52:00,
2013-01-15 06:53:00,36.9,26.9,0.00,North,10,0.0,0.0,67,0.00,,,0.00,VWS V14.01,2013-01-15 11:53:00,
2013-01-15 06:56:00,36.9,26.6,0.00,ENE,68,2.7,2.7,66,0.00,,,0.00,VWS V14.01,2013-01-15 11:56:00,
2013-01-15 06:57:00,36.9,26.6,0.00,NE,39,0.0,2.7,66,0.00,,,0.00,VWS V14.01,2013-01-15 11:57:00,
2013-01-15 06:58:00,36.9,26.6,0.00,NE,39,0.0,0.0,66,0.00,,,0.00,VWS V14.01,2013-01-15 11:58:00,
2013-01-15 06:59:00,36.9,26.6,0.00,NE,39,0.0,0.0,66,0.00,,,0.00,VWS V14.01,2013-01-15 11:59:00,
2013-01-15 07:02:00,36.9,26.6,0.00,NE,39,0.0,0.0,66,0.00,,,0.00,VWS V14.01,2013-01-15 12:02:00,
2013-01-15 07:03:00,36.9,26.6,0.00,NE,39,0.0,0.0,66,0.00,,,0.00,VWS V14.01,2013-01-15 12:03:00,
2013-01-15 07:04:00,36.9,26.6,0.00,North,10,0.0,0.0,66,0.00,,,0.00,VWS V14.01,2013-01-15 12:04:00,
2013-01-15 07:07:00,36.9,26.6,0.00,NNE,31,0.0,0.0,66,0.00,,,0.00,VWS V14.01,2013-01-15 12:07:00,
2013-01-15 07:09:00,36.9,26.6,0.00,NNE,31,0.0,0.0,66,0.00,,,0.00,VWS V14.01,2013-01-15 12:09:00,
2013-01-15 07:10:00,36.9,26.6,0.00,NNE,31,0.0,0.0,66,0.00,,,0.00,VWS V14.01,2013-01-15 12:10:00,
2013-01-15 07:12:00,36.7,26.4,0.00,NNE,31,0.0,0.0,66,0.00,,,0.00,VWS V14.01,2013-01-15 12:12:00,
2013-01-15 07:13:00,36.7,26.4,0.00,NNE,31,0.0,0.0,66,0.00,,,0.00,VWS V14.01,2013-01-15 12:13:00,
2013-01-15 07:14:00,36.7,26.4,0.00,NE,46,3.1,3.1,66,0.00,,,0.00,VWS V14.01,2013-01-15 12:14:00,
2013-01-15 07:15:00,36.7,26.4,0.00,NE,34,0.0,2.2,66,0.00,,,0.00,VWS V14.01,2013-01-15 12:15:00,
2013-01-15 07:17:00,36.7,26.4,0.00,NNE,21,2.2,2.7,66,0.00,,,0.00,VWS V14.01,2013-01-15 12:17:00,
2013-01-15 07:19:00,36.7,26.4,0.00,NNE,19,0.0,2.7,66,0.00,,,0.00,VWS V14.01,2013-01-15 12:19:00,
2013-01-15 07:21:00,36.7,26.4,0.00,NNE,19,0.0,0.0,66,0.00,,,0.00,VWS V14.01,2013-01-15 12:21:00,
2013-01-15 07:24:00,36.7,26.4,0.00,NE,47,2.7,2.7,66,0.00,,,0.00,VWS V14.01,2013-01-15 12:24:00,
2013-01-15 07:25:00,36.7,26.0,0.00,NW,326,0.0,2.2,65,0.00,,,0.00,VWS V14.01,2013-01-15 12:25:00,
2013-01-15 07:27:00,36.7,25.7,0.00,WNW,293,0.0,0.0,64,0.00,,,0.00,VWS V14.01,2013-01-15 12:27:00,
2013-01-15 07:29:00,36.7,25.7,0.00,North,4,0.0,3.6,64,0.00,,,0.00,VWS V14.01,2013-01-15 12:29:00,
2013-01-15 07:31:00,36.7,25.7,0.00,NE,35,0.0,0.0,64,0.00,,,0.00,VWS V14.01,2013-01-15 12:31:00,
2013-01-15 07:32:00,36.7,25.7,0.00,North,4,2.2,2.2,64,0.00,,,0.00,VWS V14.01,2013-01-15 12:32:00,
2013-01-15 07:34:00,36.7,25.7,0.00,NNE,20,0.0,2.2,64,0.00,,,0.00,VWS V14.01,2013-01-15 12:34:00,
2013-01-15 07:37:00,36.7,25.7,0.00,NNW,346,0.0,0.0,64,0.00,,,0.00,VWS V14.01,2013-01-15 12:37:00,
2013-01-15 07:38:00,36.7,25.7,0.00,NNE,16,2.2,2.7,64,0.00,,,0.00,VWS V14.01,2013-01-15 12:38:00,
2013-01-15 07:39:00,36.7,25.7,0.00,NNW,341,2.7,3.1,64,0.00,,,0.00,VWS V14.01,2013-01-15 12:39:00,
2013-01-15 07:42:00,36.7,25.7,0.00,ENE,61,0.0,0.0,64,0.00,,,0.00,VWS V14.01,2013-01-15 12:42:00,
2013-01-15 07:43:00,36.7,25.7,0.00,NE,44,0.0,0.0,64,0.00,,,0.00,VWS V14.01,2013-01-15 12:43:00,
2013-01-15 07:44:00,36.7,25.7,0.00,NE,38,0.0,0.0,64,0.00,,,0.00,VWS V14.01,2013-01-15 12:44:00,
2013-01-15 07:47:00,36.7,25.7,0.00,NE,42,0.0,0.0,64,0.00,,,0.00,VWS V14.01,2013-01-15 12:47:00,
2013-01-15 07:49:00,36.7,25.7,0.00,NE,42,0.0,0.0,64,0.00,,,0.00,VWS V14.01,2013-01-15 12:49:00,
2013-01-15 07:52:00,36.7,25.7,0.00,NNE,22,0.0,0.0,64,0.00,,,0.00,VWS V14.01,2013-01-15 12:52:00,
2013-01-15 07:53:00,36.7,25.7,0.00,NNE,22,0.0,0.0,64,0.00,,,0.00,VWS V14.01,2013-01-15 12:53:00,
2013-01-15 07:54:00,36.7,25.7,0.00,NE,34,0.0,0.0,64,0.00,,,0.00,VWS V14.01,2013-01-15 12:54:00,
2013-01-15 07:57:00,36.9,25.5,0.00,NE,37,0.0,0.0,63,0.00,,,0.00,VWS V14.01,2013-01-15 12:57:00,
2013-01-15 07:58:00,36.9,25.5,0.00,NE,37,0.0,0.0,63,0.00,,,0.00,VWS V14.01,2013-01-15 12:58:00,
2013-01-15 07:59:00,36.9,25.5,0.00,NE,37,0.0,0.0,63,0.00,,,0.00,VWS V14.01,2013-01-15 12:59:00,
2013-01-15 08:00:00,36.9,25.5,0.00,NE,37,0.0,0.0,63,0.00,,,0.00,VWS V14.01,2013-01-15 13:00:00,
2013-01-15 08:03:00,36.9,25.5,0.00,ENE,62,0.0,0.0,63,0.00,,,0.00,VWS V14.01,2013-01-15 13:03:00,
2013-01-15 08:04:00,36.9,25.5,0.00,ENE,62,0.0,0.0,63,0.00,,,0.00,VWS V14.01,2013-01-15 13:04:00,
2013-01-15 08:05:00,36.9,25.5,0.00,ENE,62,0.0,0.0,63,0.00,,,0.00,VWS V14.01,2013-01-15 13:05:00,
2013-01-15 08:09:00,36.9,25.5,0.00,NE,55,0.0,0.0,63,0.00,,,0.00,VWS V14.01,2013-01-15 13:09:00,
2013-01-15 08:10:00,36.9,25.5,0.00,ENE,57,0.0,0.0,63,0.00,,,0.00,VWS V14.01,2013-01-15 13:10:00,
2013-01-15 08:12:00,36.9,25.5,0.00,ENE,57,0.0,0.0,63,0.00,,,0.00,VWS V14.01,2013-01-15 13:12:00,
2013-01-15 08:14:00,36.9,25.5,0.00,NE,52,0.0,0.0,63,0.00,,,0.00,VWS V14.01,2013-01-15 13:14:00,
2013-01-15 08:16:00,36.9,25.5,0.00,NNE,20,3.1,3.1,63,0.00,,,0.00,VWS V14.01,2013-01-15 13:16:00,
2013-01-15 08:18:00,37.0,25.6,0.00,North,5,0.0,0.0,63,0.00,,,0.00,VWS V14.01,2013-01-15 13:18:00,
2013-01-15 08:19:00,37.0,25.6,0.00,North,5,0.0,0.0,63,0.00,,,0.00,VWS V14.01,2013-01-15 13:19:00,
2013-01-15 08:21:00,37.0,25.6,0.00,North,5,0.0,0.0,63,0.00,,,0.00,VWS V14.01,2013-01-15 13:21:00,
2013-01-15 08:23:00,37.0,25.6,0.00,North,5,0.0,0.0,63,0.00,,,0.00,VWS V14.01,2013-01-15 13:23:00,
2013-01-15 08:24:00,37.0,25.6,0.00,North,5,0.0,0.0,63,0.00,,,0.00,VWS V14.01,2013-01-15 13:24:00,
2013-01-15 08:25:00,37.0,25.6,0.00,North,5,0.0,0.0,63,0.00,,,0.00,VWS V14.01,2013-01-15 13:25:00,
2013-01-15 08:29:00,37.0,25.6,0.00,North,5,0.0,0.0,63,0.00,,,0.00,VWS V14.01,2013-01-15 13:29:00,
2013-01-15 08:30:00,37.0,25.6,0.00,North,5,0.0,0.0,63,0.00,,,0.00,VWS V14.01,2013-01-15 13:30:00,
2013-01-15 08:31:00,37.0,25.6,0.00,North,5,0.0,0.0,63,0.00,,,0.00,VWS V14.01,2013-01-15 13:31:00,
2013-01-15 08:35:00,37.2,25.8,0.00,NE,56,2.7,3.6,63,0.00,,,0.00,VWS V14.01,2013-01-15 13:35:00,
2013-01-15 08:36:00,37.2,25.8,0.00,NE,40,0.0,0.0,63,0.00,,,0.00,VWS V14.01,2013-01-15 13:36:00,
2013-01-15 08:37:00,37.2,25.8,0.00,NE,40,0.0,0.0,63,0.00,,,0.00,VWS V14.01,2013-01-15 13:37:00,
2013-01-15 08:40:00,37.2,25.8,0.00,NNE,20,0.0,0.0,63,0.00,,,0.00,VWS V14.01,2013-01-15 13:40:00,
2013-01-15 08:41:00,37.2,25.4,0.00,NNW,329,0.0,0.0,62,0.00,,,0.00,VWS V14.01,2013-01-15 13:41:00,
2013-01-15 08:42:00,37.2,25.4,0.00,NNW,329,0.0,0.0,62,0.00,,,0.00,VWS V14.01,2013-01-15 13:42:00,
2013-01-15 08:45:00,37.2,25.0,0.00,North,11,0.0,0.0,61,0.00,,,0.00,VWS V14.01,2013-01-15 13:45:00,
2013-01-15 08:46:00,37.4,25.2,0.00,East,99,3.1,3.1,61,0.00,,,0.00,VWS V14.01,2013-01-15 13:46:00,
2013-01-15 08:47:00,37.4,25.2,0.00,NE,39,0.0,3.1,61,0.00,,,0.00,VWS V14.01,2013-01-15 13:47:00,
2013-01-15 08:51:00,37.4,25.2,0.00,NNE,17,0.0,0.0,61,0.00,,,0.00,VWS V14.01,2013-01-15 13:51:00,
2013-01-15 08:52:00,37.4,24.8,0.00,NE,47,0.0,0.0,60,0.00,,,0.00,VWS V14.01,2013-01-15 13:52:00,
2013-01-15 08:57:00,37.4,24.8,0.00,NNE,33,2.7,2.7,60,0.00,,,0.00,VWS V14.01,2013-01-15 13:57:00,
2013-01-15 08:59:00,37.4,24.8,0.00,NE,52,0.0,0.0,60,0.00,,,0.00,VWS V14.01,2013-01-15 13:59:00,
2013-01-15 09:01:00,37.4,24.4,0.00,NE,45,0.0,4.0,59,0.00,,,0.00,VWS V14.01,2013-01-15 14:01:00,
2013-01-15 09:03:00,37.4,24.4,0.00,NE,50,3.6,3.6,59,0.00,,,0.00,VWS V14.01,2013-01-15 14:03:00,
2013-01-15 09:05:00,37.4,24.0,0.00,NE,48,0.0,0.0,58,0.00,,,0.00,VWS V14.01,2013-01-15 14:05:00,
2013-01-15 09:06:00,37.4,24.0,0.00,NE,48,0.0,0.0,58,0.00,,,0.00,VWS V14.01,2013-01-15 14:06:00,
2013-01-15 09:08:00,37.4,23.6,0.00,NNE,12,0.0,3.1,57,0.00,,,0.00,VWS V14.01,2013-01-15 14:08:00,
2013-01-15 09:10:00,37.6,23.3,0.00,NNE,12,0.0,0.0,56,0.00,,,0.00,VWS V14.01,2013-01-15 14:10:00,
2013-01-15 09:11:00,37.6,23.3,0.00,NNW,345,2.7,2.7,56,0.00,,,0.00,VWS V14.01,2013-01-15 14:11:00,
2013-01-15 09:13:00,37.6,23.3,0.00,NE,34,0.0,0.0,56,0.00,,,0.00,VWS V14.01,2013-01-15 14:13:00,
2013-01-15 09:15:00,37.6,22.9,0.00,ENE,76,0.0,3.1,55,0.00,,,0.00,VWS V14.01,2013-01-15 14:15:00,
2013-01-15 09:16:00,37.6,22.9,0.00,NE,34,2.2,3.1,55,0.00,,,0.00,VWS V14.01,2013-01-15 14:16:00,
2013-01-15 09:17:00,37.6,22.9,0.00,ENE,60,2.2,2.2,55,0.00,,,0.00,VWS V14.01,2013-01-15 14:17:00,
2013-01-15 09:18:00,37.6,22.9,0.00,ENE,59,0.0,0.0,55,0.00,,,0.00,VWS V14.01,2013-01-15 14:18:00,
2013-01-15 09:21:00,37.6,22.9,0.00,ENE,59,0.0,0.0,55,0.00,,,0.00,VWS V14.01,2013-01-15 14:21:00,
2013-01-15 09:22:00,37.8,23.1,0.00,NE,35,0.0,0.0,55,0.00,,,0.00,VWS V14.01,2013-01-15 14:22:00,
2013-01-15 09:23:00,37.8,23.1,0.00,NE,35,0.0,0.0,55,0.00,,,0.00,VWS V14.01,2013-01-15 14:23:00,
2013-01-15 09:27:00,37.8,23.1,0.00,NE,35,0.0,0.0,55,0.00,,,0.00,VWS V14.01,2013-01-15 14:27:00,
2013-01-15 09:28:00,37.8,23.1,0.00,NE,35,0.0,0.0,55,0.00,,,0.00,VWS V14.01,2013-01-15 14:28:00,
2013-01-15 09:30:00,37.8,22.6,0.00,NE,35,0.0,0.0,54,0.00,,,0.00,VWS V14.01,2013-01-15 14:30:00,
2013-01-15 09:32:00,37.8,22.6,0.00,NE,34,2.7,3.6,54,0.00,,,0.00,VWS V14.01,2013-01-15 14:32:00,
2013-01-15 09:33:00,37.8,22.6,0.00,North,11,2.2,3.6,54,0.00,,,0.00,VWS V14.01,2013-01-15 14:33:00,
2013-01-15 09:34:00,37.8,22.6,0.00,North,6,3.1,4.0,54,0.00,,,0.00,VWS V14.01,2013-01-15 14:34:00,
2013-01-15 09:36:00,37.8,21.7,0.00,NNE,18,0.0,2.7,52,0.00,,,0.00,VWS V14.01,2013-01-15 14:36:00,
2013-01-15 09:38:00,37.8,21.7,0.00,North,6,0.0,0.0,52,0.00,,,0.00,VWS V14.01,2013-01-15 14:38:00,
2013-01-15 09:39:00,37.8,21.7,0.00,North,6,0.0,0.0,52,0.00,,,0.00,VWS V14.01,2013-01-15 14:39:00,
2013-01-15 09:41:00,37.8,21.7,0.00,North,3,0.0,2.2,52,0.00,,,0.00,VWS V14.01,2013-01-15 14:41:00,
2013-01-15 09:43:00,37.8,21.7,0.00,North,5,0.0,0.0,52,0.00,,,0.00,VWS V14.01,2013-01-15 14:43:00,
2013-01-15 09:44:00,37.8,21.7,0.00,North,357,0.0,0.0,52,0.00,,,0.00,VWS V14.01,2013-01-15 14:44:00,
2013-01-15 09:46:00,37.8,21.7,0.00,NNE,23,0.0,0.0,52,0.00,,,0.00,VWS V14.01,2013-01-15 14:46:00,
2013-01-15 09:47:00,37.8,21.7,0.00,NNE,24,0.0,0.0,52,0.00,,,0.00,VWS V14.01,2013-01-15 14:47:00,
2013-01-15 09:50:00,37.8,21.7,0.00,NNW,344,0.0,3.1,52,0.00,,,0.00,VWS V14.01,2013-01-15 14:50:00,
2013-01-15 09:52:00,37.8,21.3,0.00,ENE,71,0.0,2.2,51,0.00,,,0.00,VWS V14.01,2013-01-15 14:52:00,
2013-01-15 09:53:00,37.8,21.3,0.00,NE,34,2.7,2.7,51,0.00,,,0.00,VWS V14.01,2013-01-15 14:53:00,
2013-01-15 09:56:00,37.8,21.3,0.00,NNE,17,0.0,0.0,51,0.00,,,0.00,VWS V14.01,2013-01-15 14:56:00,
2013-01-15 09:57:00,37.8,21.3,0.00,NE,38,0.0,4.0,51,0.00,,,0.00,VWS V14.01,2013-01-15 14:57:00,
2013-01-15 09:59:00,37.8,21.3,0.00,NNW,341,2.7,3.6,51,0.00,,,0.00,VWS V14.01,2013-01-15 14:59:00,
2013-01-15 10:01:00,37.8,21.3,0.00,NNE,33,0.0,0.0,51,0.00,,,0.00,VWS V14.01,2013-01-15 15:01:00,
2013-01-15 10:03:00,37.8,20.8,0.00,NNW,337,3.1,3.1,50,0.00,,,0.00,VWS V14.01,2013-01-15 15:03:00,
2013-01-15 10:04:00,37.8,19.4,0.00,North,357,0.0,2.7,47,0.00,,,0.00,VWS V14.01,2013-01-15 15:04:00,
2013-01-15 10:05:00,37.8,19.9,0.00,North,357,0.0,0.0,48,0.00,,,0.00,VWS V14.01,2013-01-15 15:05:00,
2013-01-15 10:07:00,37.8,20.8,0.00,NNW,339,0.0,3.6,50,0.00,,,0.00,VWS V14.01,2013-01-15 15:07:00,
2013-01-15 10:09:00,37.8,20.8,0.00,NNE,16,2.7,2.7,50,0.00,,,0.00,VWS V14.01,2013-01-15 15:09:00,
2013-01-15 10:10:00,37.8,20.8,0.00,NNE,16,0.0,2.7,50,0.00,,,0.00,VWS V14.01,2013-01-15 15:10:00,
2013-01-15 10:11:00,37.8,20.8,0.00,NNE,15,0.0,0.0,50,0.00,,,0.00,VWS V14.01,2013-01-15 15:11:00,
2013-01-15 10:13:00,37.9,21.0,0.00,NNE,24,0.0,0.0,50,0.00,,,0.00,VWS V14.01,2013-01-15 15:13:00,
2013-01-15 10:15:00,37.9,21.0,0.00,North,11,2.2,3.1,50,0.00,,,0.00,VWS V14.01,2013-01-15 15:15:00,
2013-01-15 10:16:00,37.9,21.0,0.00,North,11,0.0,3.1,50,0.00,,,0.00,VWS V14.01,2013-01-15 15:16:00,
2013-01-15 10:18:00,37.9,20.0,0.00,North,1,2.2,2.7,48,0.00,,,0.00,VWS V14.01,2013-01-15 15:18:00,
2013-01-15 10:21:00,37.9,20.0,0.00,WNW,303,2.7,3.1,48,0.00,,,0.00,VWS V14.01,2013-01-15 15:21:00,
2013-01-15 10:24:00,37.9,20.5,0.00,NNE,14,0.0,0.0,49,0.00,,,0.00,VWS V14.01,2013-01-15 15:24:00,
2013-01-15 10:25:00,37.9,20.5,0.00,NNE,14,0.0,0.0,49,0.00,,,0.00,VWS V14.01,2013-01-15 15:25:00,
2013-01-15 10:26:00,38.1,20.7,0.00,NNE,17,3.1,3.1,49,0.00,,,0.00,VWS V14.01,2013-01-15 15:26:00,
2013-01-15 10:27:00,38.1,20.7,0.00,NNE,17,3.1,3.1,49,0.00,,,0.00,VWS V14.01,2013-01-15 15:27:00,
2013-01-15 10:29:00,38.1,20.7,0.00,North,4,2.7,2.7,49,0.00,,,0.00,VWS V14.01,2013-01-15 15:29:00,
2013-01-15 10:31:00,38.1,20.7,0.00,NNE,22,2.7,2.7,49,0.00,,,0.00,VWS V14.01,2013-01-15 15:31:00,
2013-01-15 10:32:00,38.1,20.7,0.00,NW,311,3.6,3.6,49,0.00,,,0.00,VWS V14.01,2013-01-15 15:32:00,
2013-01-15 10:33:00,38.1,19.7,0.00,NW,306,2.7,2.7,47,0.00,,,0.00,VWS V14.01,2013-01-15 15:33:00,
2013-01-15 10:36:00,38.1,19.7,0.00,NNW,337,3.6,3.6,47,0.00,,,0.00,VWS V14.01,2013-01-15 15:36:00,
2013-01-15 10:37:00,38.1,19.7,0.00,NNW,344,3.6,3.6,47,0.00,,,0.00,VWS V14.01,2013-01-15 15:37:00,
2013-01-15 10:38:00,38.1,20.2,0.00,North,357,2.2,3.6,48,0.00,,,0.00,VWS V14.01,2013-01-15 15:38:00,
2013-01-15 10:39:00,38.1,19.7,0.00,NW,313,2.2,2.2,47,0.00,,,0.00,VWS V14.01,2013-01-15 15:39:00,
2013-01-15 10:42:00,38.1,19.2,0.00,NNW,328,2.2,2.7,46,0.00,,,0.00,VWS V14.01,2013-01-15 15:42:00,
2013-01-15 10:43:00,38.1,19.7,0.00,North,5,2.2,2.2,47,0.00,,,0.00,VWS V14.01,2013-01-15 15:43:00,
2013-01-15 10:44:00,38.1,20.2,0.00,North,357,0.0,0.0,48,0.00,,,0.00,VWS V14.01,2013-01-15 15:44:00,
2013-01-15 10:47:00,38.1,20.2,0.00,WNW,295,2.2,4.0,48,0.00,,,0.00,VWS V14.01,2013-01-15 15:47:00,
2013-01-15 10:48:00,38.1,20.2,0.00,WNW,297,2.2,2.2,48,0.00,,,0.00,VWS V14.01,2013-01-15 15:48:00,
2013-01-15 10:49:00,38.3,20.4,0.00,NW,320,0.0,2.2,48,0.00,,,0.00,VWS V14.01,2013-01-15 15:49:00,
2013-01-15 10:52:00,38.3,19.9,0.00,NNW,342,0.0,0.0,47,0.00,,,0.00,VWS V14.01,2013-01-15 15:52:00,
2013-01-15 10:54:00,38.3,18.8,0.00,NW,304,5.4,5.4,45,0.00,,,0.00,VWS V14.01,2013-01-15 15:54:00,
2013-01-15 10:57:00,38.3,18.3,0.00,NNW,338,5.4,5.4,44,0.00,,,0.00,VWS V14.01,2013-01-15 15:57:00,
2013-01-15 10:59:00,38.3,18.8,0.00,NE,34,2.2,2.2,45,0.00,,,0.00,VWS V14.01,2013-01-15 15:59:00,
2013-01-15 11:00:00,38.3,18.8,0.00,North,2,0.0,2.7,45,0.00,,,0.00,VWS V14.01,2013-01-15 16:00:00,
2013-01-15 11:03:00,38.3,19.4,0.00,ENE,59,4.9,4.9,46,0.00,,,0.00,VWS V14.01,2013-01-15 16:03:00,
2013-01-15 11:04:00,38.3,18.3,0.00,WNW,303,0.0,4.9,44,0.00,,,0.00,VWS V14.01,2013-01-15 16:04:00,
2013-01-15 11:05:00,38.3,18.3,0.00,WNW,303,0.0,0.0,44,0.00,,,0.00,VWS V14.01,2013-01-15 16:05:00,
2013-01-15 11:07:00,38.3,18.8,0.00,NNW,344,2.7,2.7,45,0.00,,,0.00,VWS V14.01,2013-01-15 16:07:00,
2013-01-15 11:08:00,38.3,18.8,0.00,NNW,344,0.0,2.7,45,0.00,,,0.00,VWS V14.01,2013-01-15 16:08:00,
2013-01-15 11:10:00,38.3,19.4,0.00,NNE,15,0.0,2.7,46,0.00,,,0.00,VWS V14.01,2013-01-15 16:10:00,
2013-01-15 11:11:00,38.3,19.4,0.00,NNE,15,0.0,0.0,46,0.00,,,0.00,VWS V14.01,2013-01-15 16:11:00,
2013-01-15 11:13:00,38.3,18.8,0.00,NNW,327,3.6,4.0,45,0.00,,,0.00,VWS V14.01,2013-01-15 16:13:00,
2013-01-15 11:16:00,38.3,18.3,0.00,NW,323,2.7,3.1,44,0.00,,,0.00,VWS V14.01,2013-01-15 16:16:00,
2013-01-15 11:17:00,38.3,18.3,0.00,NW,322,0.0,0.0,44,0.00,,,0.00,VWS V14.01,2013-01-15 16:17:00,
2013-01-15 11:18:00,38.3,18.3,0.00,NW,322,0.0,0.0,44,0.00,,,0.00,VWS V14.01,2013-01-15 16:18:00,
2013-01-15 11:20:00,38.3,18.3,0.00,NW,322,0.0,0.0,44,0.00,,,0.00,VWS V14.01,2013-01-15 16:20:00,
2013-01-15 11:21:00,38.3,18.3,0.00,ENE,59,0.0,2.7,44,0.00,,,0.00,VWS V14.01,2013-01-15 16:21:00,
2013-01-15 11:23:00,38.3,18.3,0.00,NNW,330,0.0,3.1,44,0.00,,,0.00,VWS V14.01,2013-01-15 16:23:00,
2013-01-15 11:24:00,38.5,18.5,0.00,NNW,330,0.0,3.1,44,0.00,,,0.00,VWS V14.01,2013-01-15 16:24:00,
2013-01-15 11:27:00,38.5,18.5,0.00,NE,49,0.0,2.7,44,0.00,,,0.00,VWS V14.01,2013-01-15 16:27:00,
2013-01-15 11:28:00,38.5,18.5,0.00,NW,323,3.1,3.1,44,0.00,,,0.00,VWS V14.01,2013-01-15 16:28:00,
2013-01-15 11:29:00,38.3,18.3,0.00,NW,323,0.0,3.1,44,0.00,,,0.00,VWS V14.01,2013-01-15 16:29:00,
2013-01-15 11:30:00,38.3,18.3,0.00,NW,325,0.0,0.0,44,0.00,,,0.00,VWS V14.01,2013-01-15 16:30:00,
2013-01-15 11:32:00,38.3,18.3,0.00,NNE,14,0.0,0.0,44,0.00,,,0.00,VWS V14.01,2013-01-15 16:32:00,
2013-01-15 11:34:00,38.3,17.8,0.00,NW,317,3.6,3.6,43,0.00,,,0.00,VWS V14.01,2013-01-15 16:34:00,
2013-01-15 11:38:00,38.3,17.8,0.00,NNW,329,0.0,2.7,43,0.00,,,0.00,VWS V14.01,2013-01-15 16:38:00,
2013-01-15 11:40:00,38.1,17.1,0.00,NNE,14,2.2,3.1,42,0.00,,,0.00,VWS V14.01,2013-01-15 16:40:00,
2013-01-15 11:41:00,38.3,17.8,0.00,North,357,0.0,0.0,43,0.00,,,0.00,VWS V14.01,2013-01-15 16:41:00,
2013-01-15 11:45:00,38.3,17.8,0.00,North,10,3.1,4.0,43,0.00,,,0.00,VWS V14.01,2013-01-15 16:45:00,
2013-01-15 11:46:00,38.3,17.8,0.00,NNW,340,4.0,4.0,43,0.00,,,0.00,VWS V14.01,2013-01-15 16:46:00,
2013-01-15 11:47:00,38.3,17.8,0.00,NNW,340,0.0,4.0,43,0.00,,,0.00,VWS V14.01,2013-01-15 16:47:00,
2013-01-15 11:49:00,38.3,18.3,0.00,NE,50,0.0,3.6,44,0.00,,,0.00,VWS V14.01,2013-01-15 16:49:00,
2013-01-15 11:52:00,38.3,17.8,0.00,WNW,295,3.6,3.6,43,0.00,,,0.00,VWS V14.01,2013-01-15 16:52:00,
2013-01-15 11:54:00,38.3,17.2,0.00,North,0,2.7,3.1,42,0.00,,,0.00,VWS V14.01,2013-01-15 16:54:00,
2013-01-15 11:55:00,38.3,17.8,0.00,NNE,21,2.7,2.7,43,0.00,,,0.00,VWS V14.01,2013-01-15 16:55:00,
2013-01-15 11:57:00,38.3,17.8,0.00,NNW,335,0.0,2.7,43,0.00,,,0.00,VWS V14.01,2013-01-15 16:57:00,
2013-01-15 11:59:00,38.1,17.6,0.00,NNW,348,2.7,4.9,43,0.00,,,0.00,VWS V14.01,2013-01-15 16:59:00,
2013-01-15 12:00:00,38.1,17.6,0.00,NNE,21,0.0,2.2,43,0.00,,,0.00,VWS V14.01,2013-01-15 17:00:00,
2013-01-15 12:01:00,38.1,17.6,0.00,North,7,0.0,2.2,43,0.00,,,0.00,VWS V14.01,2013-01-15 17:01:00,
2013-01-15 12:04:00,38.1,17.6,0.00,North,4,0.0,2.2,43,0.00,,,0.00,VWS V14.01,2013-01-15 17:04:00,
2013-01-15 12:08:00,38.1,17.6,0.00,NNW,329,2.2,2.2,43,0.00,,,0.00,VWS V14.01,2013-01-15 17:08:00,
2013-01-15 12:09:00,38.1,17.6,0.00,WNW,297,3.1,3.1,43,0.00,,,0.00,VWS V14.01,2013-01-15 17:09:00,
2013-01-15 12:10:00,38.1,17.6,0.00,NNW,336,0.0,2.2,43,0.00,,,0.00,VWS V14.01,2013-01-15 17:10:00,
2013-01-15 12:12:00,38.1,17.6,0.00,NNE,17,0.0,2.7,43,0.00,,,0.00,VWS V14.01,2013-01-15 17:12:00,
2013-01-15 12:13:00,38.1,17.6,0.00,NNE,27,0.0,2.2,43,0.00,,,0.00,VWS V14.01,2013-01-15 17:13:00,
2013-01-15 12:16:00,38.1,17.6,0.00,NNE,27,0.0,0.0,43,0.00,,,0.00,VWS V14.01,2013-01-15 17:16:00,
2013-01-15 12:18:00,38.1,18.1,0.00,NNE,20,0.0,3.1,44,0.00,,,0.00,VWS V14.01,2013-01-15 17:18:00,
2013-01-15 12:21:00,38.1,18.1,0.00,NNE,20,0.0,0.0,44,0.00,,,0.00,VWS V14.01,2013-01-15 17:21:00,
2013-01-15 12:22:00,38.3,18.3,0.00,NNE,20,0.0,0.0,44,0.00,,,0.00,VWS V14.01,2013-01-15 17:22:00,
2013-01-15 12:23:00,38.3,18.3,0.00,NNE,20,0.0,0.0,44,0.00,,,0.00,VWS V14.01,2013-01-15 17:23:00,
2013-01-15 12:24:00,38.3,18.3,0.00,North,353,0.0,0.0,44,0.00,,,0.00,VWS V14.01,2013-01-15 17:24:00,
2013-01-15 12:26:00,38.3,18.3,0.00,North,357,4.5,4.5,44,0.00,,,0.00,VWS V14.01,2013-01-15 17:26:00,
2013-01-15 12:27:00,38.3,18.3,0.00,North,353,0.0,4.5,44,0.00,,,0.00,VWS V14.01,2013-01-15 17:27:00,
2013-01-15 12:29:00,38.3,17.8,0.00,NNW,337,0.0,2.2,43,0.00,,,0.00,VWS V14.01,2013-01-15 17:29:00,
2013-01-15 12:30:00,38.3,17.8,0.00,NNW,330,2.7,2.7,43,0.00,,,0.00,VWS V14.01,2013-01-15 17:30:00,
2013-01-15 12:31:00,38.3,17.2,0.00,WNW,299,2.2,2.7,42,0.00,,,0.00,VWS V14.01,2013-01-15 17:31:00,
2013-01-15 12:32:00,38.3,17.2,0.00,NNW,346,3.6,3.6,42,0.00,,,0.00,VWS V14.01,2013-01-15 17:32:00,
2013-01-15 12:34:00,38.3,17.2,0.00,North,353,0.0,0.0,42,0.00,,,0.00,VWS V14.01,2013-01-15 17:34:00,
2013-01-15 12:36:00,38.3,17.8,0.00,North,1,0.0,0.0,43,0.00,,,0.00,VWS V14.01,2013-01-15 17:36:00,
2013-01-15 12:37:00,38.3,17.2,0.00,NW,319,3.6,5.4,42,0.00,,,0.00,VWS V14.01,2013-01-15 17:37:00,
2013-01-15 12:39:00,38.3,16.7,0.00,NW,310,2.7,3.6,41,0.00,,,0.00,VWS V14.01,2013-01-15 17:39:00,
2013-01-15 12:41:00,38.1,16.5,0.00,NW,317,2.2,2.7,41,0.00,,,0.00,VWS V14.01,2013-01-15 17:41:00,
2013-01-15 12:42:00,38.1,15.9,0.00,NW,315,0.0,4.9,40,0.00,,,0.00,VWS V14.01,2013-01-15 17:42:00,
2013-01-15 12:44:00,38.1,16.5,0.00,NNE,25,0.0,3.1,41,0.00,,,0.00,VWS V14.01,2013-01-15 17:44:00,
2013-01-15 12:45:00,38.1,16.5,0.00,NE,44,0.0,0.0,41,0.00,,,0.00,VWS V14.01,2013-01-15 17:45:00,
2013-01-15 12:49:00,38.1,17.1,0.00,NE,38,0.0,2.7,42,0.00,,,0.00,VWS V14.01,2013-01-15 17:49:00,
2013-01-15 12:50:00,38.1,17.1,0.00,NNE,22,0.0,0.0,42,0.00,,,0.00,VWS V14.01,2013-01-15 17:50:00,
2013-01-15 12:51:00,38.1,17.1,0.00,NW,319,3.1,4.9,42,0.00,,,0.00,VWS V14.01,2013-01-15 17:51:00,
2013-01-15 12:53:00,38.1,16.5,0.00,North,0,3.6,3.6,41,0.00,,,0.00,VWS V14.01,2013-01-15 17:53:00,
2013-01-15 12:54:00,38.1,16.5,0.00,North,1,3.6,3.6,41,0.00,,,0.00,VWS V14.01,2013-01-15 17:54:00,
2013-01-15 12:57:00,38.1,16.5,0.00,North,357,0.0,0.0,41,0.00,,,0.00,VWS V14.01,2013-01-15 17:57:00,
2013-01-15 12:58:00,38.1,16.5,0.00,North,357,0.0,0.0,41,0.00,,,0.00,VWS V14.01,2013-01-15 17:58:00,
2013-01-15 12:59:00,38.1,16.5,0.00,North,357,0.0,0.0,41,0.00,,,0.00,VWS V14.01,2013-01-15 17:59:00,
2013-01-15 13:00:00,38.1,16.5,0.00,NW,325,2.7,4.0,41,0.00,,,0.00,VWS V14.01,2013-01-15 18:00:00,
2013-01-15 13:03:00,38.1,16.5,0.00,NNW,330,0.0,0.0,41,0.00,,,0.00,VWS V14.01,2013-01-15 18:03:00,
2013-01-15 13:04:00,38.1,16.5,0.00,NNW,343,0.0,0.0,41,0.00,,,0.00,VWS V14.01,2013-01-15 18:04:00,
2013-01-15 13:05:00,38.1,16.5,0.00,NW,314,3.1,3.1,41,0.00,,,0.00,VWS V14.01,2013-01-15 18:05:00,
2013-01-15 13:09:00,38.1,15.9,0.00,NW,324,2.2,4.0,40,0.00,,,0.00,VWS V14.01,2013-01-15 18:09:00,
2013-01-15 13:10:00,38.1,16.5,0.00,North,11,2.2,3.1,41,0.00,,,0.00,VWS V14.01,2013-01-15 18:10:00,
2013-01-15 13:14:00,38.3,16.7,0.00,NNE,31,0.0,0.0,41,0.00,,,0.00,VWS V14.01,2013-01-15 18:14:00,
2013-01-15 13:15:00,38.3,16.7,0.00,NNE,31,0.0,0.0,41,0.00,,,0.00,VWS V14.01,2013-01-15 18:15:00,
2013-01-15 13:16:00,38.3,16.7,0.00,NNE,30,0.0,0.0,41,0.00,,,0.00,VWS V14.01,2013-01-15 18:16:00,
2013-01-15 13:19:00,38.5,16.8,0.00,North,353,0.0,4.0,41,0.00,,,0.00,VWS V14.01,2013-01-15 18:19:00,
2013-01-15 13:20:00,38.5,16.8,0.00,NNW,335,2.2,3.1,41,0.00,,,0.00,VWS V14.01,2013-01-15 18:20:00,
2013-01-15 13:21:00,38.5,16.8,0.00,NNW,335,0.0,2.2,41,0.00,,,0.00,VWS V14.01,2013-01-15 18:21:00,
2013-01-15 13:22:00,38.5,16.8,0.00,NNW,333,0.0,0.0,41,0.00,,,0.00,VWS V14.01,2013-01-15 18:22:00,
2013-01-15 13:26:00,38.3,16.1,0.00,WNW,299,2.7,4.0,40,0.00,,,0.00,VWS V14.01,2013-01-15 18:26:00,
2013-01-15 13:28:00,38.3,16.1,0.00,WNW,299,2.7,2.7,40,0.00,,,0.00,VWS V14.01,2013-01-15 18:28:00,
2013-01-15 13:29:00,38.3,16.1,0.00,West,277,0.0,3.1,40,0.00,,,0.00,VWS V14.01,2013-01-15 18:29:00,
2013-01-15 13:31:00,38.1,15.9,0.00,NNW,338,4.5,4.5,40,0.00,,,0.00,VWS V14.01,2013-01-15 18:31:00,
2013-01-15 13:33:00,38.1,15.9,0.00,NNE,25,2.7,2.7,40,0.00,,,0.00,VWS V14.01,2013-01-15 18:33:00,
2013-01-15 13:34:00,38.3,16.7,0.00,North,8,0.0,2.2,41,0.00,,,0.00,VWS V14.01,2013-01-15 18:34:00,
2013-01-15 13:36:00,38.3,16.1,0.00,North,1,0.0,0.0,40,0.00,,,0.00,VWS V14.01,2013-01-15 18:36:00,
2013-01-15 13:38:00,38.3,16.1,0.00,North,4,3.6,3.6,40,0.00,,,0.00,VWS V14.01,2013-01-15 18:38:00,
2013-01-15 13:39:00,38.1,15.4,0.00,NW,325,3.6,5.4,39,0.00,,,0.00,VWS V14.01,2013-01-15 18:39:00,
2013-01-15 13:40:00,38.1,15.4,0.00,NW,315,2.7,2.7,39,0.00,,,0.00,VWS V14.01,2013-01-15 18:40:00,
2013-01-15 13:41:00,38.1,15.4,0.00,NNW,339,4.0,4.0,39,0.00,,,0.00,VWS V14.01,2013-01-15 18:41:00,
2013-01-15 13:43:00,38.1,15.4,0.00,NNW,345,0.0,0.0,39,0.00,,,0.00,VWS V14.01,2013-01-15 18:43:00,
2013-01-15 13:45:00,38.1,15.9,0.00,NW,309,2.2,3.1,40,0.00,,,0.00,VWS V14.01,2013-01-15 18:45:00,
2013-01-15 13:46:00,38.1,15.9,0.00,NW,309,0.0,3.1,40,0.00,,,0.00,VWS V14.01,2013-01-15 18:46:00,
2013-01-15 13:47:00,38.3,16.1,0.00,NW,320,0.0,0.0,40,0.00,,,0.00,VWS V14.01,2013-01-15 18:47:00,
2013-01-15 13:48:00,38.3,16.1,0.00,NNW,343,3.6,4.0,40,0.00,,,0.00,VWS V14.01,2013-01-15 18:48:00,
2013-01-15 13:51:00,38.3,16.1,0.00,NNW,345,0.0,2.2,40,0.00,,,0.00,VWS V14.01,2013-01-15 18:51:00,
2013-01-15 13:52:00,38.5,16.3,0.00,NNW,327,0.0,0.0,40,0.00,,,0.00,VWS V14.01,2013-01-15 18:52:00,
2013-01-15 13:53:00,38.5,16.3,0.00,NNE,28,0.0,0.0,40,0.00,,,0.00,VWS V14.01,2013-01-15 18:53:00,
2013-01-15 13:54:00,38.5,16.3,0.00,NNE,28,0.0,0.0,40,0.00,,,0.00,VWS V14.01,2013-01-15 18:54:00,
2013-01-15 13:56:00,38.5,16.3,0.00,North,349,0.0,0.0,40,0.00,,,0.00,VWS V14.01,2013-01-15 18:56:00,
2013-01-15 13:59:00,38.7,16.4,0.00,NNE,32,2.7,3.1,40,0.00,,,0.00,VWS V14.01,2013-01-15 18:59:00,
2013-01-15 14:00:00,38.7,16.4,0.00,ENE,59,0.0,2.7,40,0.00,,,0.00,VWS V14.01,2013-01-15 19:00:00,
2013-01-15 14:03:00,38.8,16.6,0.00,NW,318,2.2,2.7,40,0.00,,,0.00,VWS V14.01,2013-01-15 19:03:00,
2013-01-15 14:05:00,38.8,16.6,0.00,NE,47,3.1,3.1,40,0.00,,,0.00,VWS V14.01,2013-01-15 19:05:00,
2013-01-15 14:07:00,38.8,16.6,0.00,NNE,31,2.7,2.7,40,0.00,,,0.00,VWS V14.01,2013-01-15 19:07:00,
2013-01-15 14:08:00,38.7,15.9,0.00,ENE,77,2.2,3.1,39,0.00,,,0.00,VWS V14.01,2013-01-15 19:08:00,
2013-01-15 14:09:00,38.8,16.0,0.00,NNE,21,3.1,3.1,39,0.00,,,0.00,VWS V14.01,2013-01-15 19:09:00,
2013-01-15 14:11:00,38.8,16.0,0.00,WNW,291,0.0,0.0,39,0.00,,,0.00,VWS V14.01,2013-01-15 19:11:00,
2013-01-15 14:13:00,38.8,16.0,0.00,NW,310,0.0,0.0,39,0.00,,,0.00,VWS V14.01,2013-01-15 19:13:00,
2013-01-15 14:14:00,38.8,16.0,0.00,NW,310,0.0,0.0,39,0.00,,,0.00,VWS V14.01,2013-01-15 19:14:00,
2013-01-15 14:15:00,38.8,16.0,0.00,NW,310,2.2,2.2,39,0.00,,,0.00,VWS V14.01,2013-01-15 19:15:00,
2013-01-15 14:18:00,38.8,16.6,0.00,NNE,29,0.0,0.0,40,0.00,,,0.00,VWS V14.01,2013-01-15 19:18:00,
2013-01-15 14:19:00,38.8,16.0,0.00,NNE,22,0.0,0.0,39,0.00,,,0.00,VWS V14.01,2013-01-15 19:19:00,
2013-01-15 14:20:00,38.8,16.0,0.00,North,5,3.6,4.0,39,0.00,,,0.00,VWS V14.01,2013-01-15 19:20:00,
2013-01-15 14:23:00,38.8,16.0,0.00,NW,319,2.2,2.2,39,0.00,,,0.00,VWS V14.01,2013-01-15 19:23:00,
2013-01-15 14:24:00,38.7,15.9,0.00,North,1,3.1,3.1,39,0.00,,,0.00,VWS V14.01,2013-01-15 19:24:00,
2013-01-15 14:25:00,38.7,15.9,0.00,North,357,2.2,3.6,39,0.00,,,0.00,VWS V14.01,2013-01-15 19:25:00,
2013-01-15 14:26:00,38.7,15.9,0.00,North,1,3.1,3.6,39,0.00,,,0.00,VWS V14.01,2013-01-15 19:26:00,
2013-01-15 14:28:00,38.7,15.9,0.00,North,350,0.0,0.0,39,0.00,,,0.00,VWS V14.01,2013-01-15 19:28:00,
2013-01-15 14:30:00,38.5,15.7,0.00,NW,318,3.1,3.1,39,0.00,,,0.00,VWS V14.01,2013-01-15 19:30:00,
2013-01-15 14:31:00,38.5,15.7,0.00,NE,54,2.7,3.6,39,0.00,,,0.00,VWS V14.01,2013-01-15 19:31:00,
2013-01-15 14:34:00,38.5,15.7,0.00,NW,324,2.7,3.6,39,0.00,,,0.00,VWS V14.01,2013-01-15 19:34:00,
2013-01-15 14:36:00,38.5,15.7,0.00,NNW,330,0.0,0.0,39,0.00,,,0.00,VWS V14.01,2013-01-15 19:36:00,
2013-01-15 14:38:00,38.5,15.7,0.00,NNW,346,0.0,2.7,39,0.00,,,0.00,VWS V14.01,2013-01-15 19:38:00,
2013-01-15 14:39:00,38.5,15.7,0.00,ENE,59,0.0,2.7,39,0.00,,,0.00,VWS V14.01,2013-01-15 19:39:00,
2013-01-15 14:40:00,38.5,15.7,0.00,NE,48,2.2,2.7,39,0.00,,,0.00,VWS V14.01,2013-01-15 19:40:00,
2013-01-15 14:42:00,38.5,15.7,0.00,NNE,20,2.7,2.7,39,0.00,,,0.00,VWS V14.01,2013-01-15 19:42:00,
2013-01-15 14:44:00,38.5,15.7,0.00,NNW,331,0.0,0.0,39,0.00,,,0.00,VWS V14.01,2013-01-15 19:44:00,
2013-01-15 14:46:00,38.5,15.7,0.00,NNW,331,0.0,0.0,39,0.00,,,0.00,VWS V14.01,2013-01-15 19:46:00,
2013-01-15 14:47:00,38.5,15.7,0.00,NNW,331,2.7,2.7,39,0.00,,,0.00,VWS V14.01,2013-01-15 19:47:00,
2013-01-15 14:50:00,38.3,15.5,0.00,NE,47,0.0,0.0,39,0.00,,,0.00,VWS V14.01,2013-01-15 19:50:00,
2013-01-15 14:51:00,38.3,15.5,0.00,North,353,0.0,0.0,39,0.00,,,0.00,VWS V14.01,2013-01-15 19:51:00,
2013-01-15 14:53:00,38.3,15.5,0.00,North,3,3.6,3.6,39,0.00,,,0.00,VWS V14.01,2013-01-15 19:53:00,
2013-01-15 14:56:00,38.3,15.5,0.00,NNE,13,4.0,4.0,39,0.00,,,0.00,VWS V14.01,2013-01-15 19:56:00,
2013-01-15 14:58:00,38.3,15.5,0.00,NNW,328,2.2,3.1,39,0.00,,,0.00,VWS V14.01,2013-01-15 19:58:00,
2013-01-15 15:01:00,38.1,15.4,0.00,NNE,13,3.1,3.1,39,0.00,,,0.00,VWS V14.01,2013-01-15 20:01:00,
2013-01-15 15:03:00,38.1,15.4,0.00,North,357,2.2,2.7,39,0.00,,,0.00,VWS V14.01,2013-01-15 20:03:00,
2013-01-15 15:04:00,38.1,15.4,0.00,North,357,0.0,0.0,39,0.00,,,0.00,VWS V14.01,2013-01-15 20:04:00,
2013-01-15 15:06:00,38.1,15.4,0.00,North,2,3.6,3.6,39,0.00,,,0.00,VWS V14.01,2013-01-15 20:06:00,
2013-01-15 15:07:00,38.1,14.8,0.00,WNW,301,3.6,3.6,38,0.00,,,0.00,VWS V14.01,2013-01-15 20:07:00,
2013-01-15 15:09:00,38.1,15.4,0.00,North,0,0.0,0.0,39,0.00,,,0.00,VWS V14.01,2013-01-15 20:09:00,
2013-01-15 15:11:00,38.1,15.4,0.00,NW,324,0.0,0.0,39,0.00,,,0.00,VWS V14.01,2013-01-15 20:11:00,
2013-01-15 15:12:00,38.1,15.4,0.00,North,1,0.0,3.1,39,0.00,,,0.00,VWS V14.01,2013-01-15 20:12:00,
2013-01-15 15:14:00,38.1,15.4,0.00,North,357,0.0,2.7,39,0.00,,,0.00,VWS V14.01,2013-01-15 20:14:00,
2013-01-15 15:16:00,38.3,15.5,0.00,NNE,17,0.0,0.0,39,0.00,,,0.00,VWS V14.01,2013-01-15 20:16:00,
2013-01-15 15:17:00,38.3,15.5,0.00,NW,324,0.0,0.0,39,0.00,,,0.00,VWS V14.01,2013-01-15 20:17:00,
2013-01-15 15:19:00,38.3,15.5,0.00,NNE,29,0.0,2.7,39,0.00,,,0.00,VWS V14.01,2013-01-15 20:19:00,
2013-01-15 15:21:00,38.3,14.9,0.00,NNW,339,0.0,2.2,38,0.00,,,0.00,VWS V14.01,2013-01-15 20:21:00,
2013-01-15 15:22:00,38.3,14.9,0.00,WNW,294,5.4,5.4,38,0.00,,,0.00,VWS V14.01,2013-01-15 20:22:00,
2013-01-15 15:23:00,38.1,13.5,0.00,WNW,293,4.0,4.0,36,0.00,,,0.00,VWS V14.01,2013-01-15 20:23:00,
2013-01-15 15:24:00,38.1,14.8,0.00,NNW,327,2.2,2.7,38,0.00,,,0.00,VWS V14.01,2013-01-15 20:24:00,
2013-01-15 15:27:00,38.1,14.8,0.00,NNW,327,0.0,2.2,38,0.00,,,0.00,VWS V14.01,2013-01-15 20:27:00,
2013-01-15 15:30:00,38.1,14.2,0.00,NW,305,0.0,0.0,37,0.00,,,0.00,VWS V14.01,2013-01-15 20:30:00,
2013-01-15 15:31:00,38.1,14.8,0.00,NNE,29,0.0,2.2,38,0.00,,,0.00,VWS V14.01,2013-01-15 20:31:00,
2013-01-15 15:33:00,38.1,14.8,0.00,WNW,290,2.7,4.5,38,0.00,,,0.00,VWS V14.01,2013-01-15 20:33:00,
2013-01-15 15:34:00,38.1,14.8,0.00,North,0,3.6,4.0,38,0.00,,,0.00,VWS V14.01,2013-01-15 20:34:00,
2013-01-15 15:36:00,38.1,13.5,0.00,ENE,61,3.6,4.9,36,0.00,,,0.00,VWS V14.01,2013-01-15 20:36:00,
2013-01-15 15:38:00,38.1,13.5,0.00,North,8,5.8,5.8,36,0.00,,,0.00,VWS V14.01,2013-01-15 20:38:00,
2013-01-15 15:40:00,38.1,13.5,0.00,North,357,3.1,4.0,36,0.00,,,0.00,VWS V14.01,2013-01-15 20:40:00,
2013-01-15 15:41:00,38.1,13.5,0.00,NNW,327,2.2,2.2,36,0.00,,,0.00,VWS V14.01,2013-01-15 20:41:00,
2013-01-15 15:44:00,38.1,13.5,0.00,NW,306,2.7,4.0,36,0.00,,,0.00,VWS V14.01,2013-01-15 20:44:00,
2013-01-15 15:45:00,38.1,13.5,0.00,WNW,303,2.7,4.0,36,0.00,,,0.00,VWS V14.01,2013-01-15 20:45:00,
2013-01-15 15:47:00,38.1,13.5,0.00,North,357,0.0,0.0,36,0.00,,,0.00,VWS V14.01,2013-01-15 20:47:00,
2013-01-15 15:50:00,38.1,14.2,0.00,NNE,20,0.0,0.0,37,0.00,,,0.00,VWS V14.01,2013-01-15 20:50:00,
2013-01-15 15:51:00,38.1,14.2,0.00,NNE,25,3.6,3.6,37,0.00,,,0.00,VWS V14.01,2013-01-15 20:51:00,
2013-01-15 15:52:00,38.1,13.5,0.00,North,6,0.0,0.0,36,0.00,,,0.00,VWS V14.01,2013-01-15 20:52:00,
2013-01-15 15:53:00,38.1,13.5,0.00,NE,42,2.2,2.2,36,0.00,,,0.00,VWS V14.01,2013-01-15 20:53:00,
2013-01-15 15:57:00,38.1,14.2,0.00,NW,325,0.0,0.0,37,0.00,,,0.00,VWS V14.01,2013-01-15 20:57:00,
2013-01-15 15:58:00,38.1,14.2,0.00,NW,325,0.0,0.0,37,0.00,,,0.00,VWS V14.01,2013-01-15 20:58:00,
2013-01-15 15:59:00,38.1,14.2,0.00,NNE,15,2.2,2.2,37,0.00,,,0.00,VWS V14.01,2013-01-15 20:59:00,
2013-01-15 16:03:00,38.1,14.2,0.00,NE,52,3.6,3.6,37,0.00,,,0.00,VWS V14.01,2013-01-15 21:03:00,
2013-01-15 16:04:00,38.1,14.2,0.00,NE,55,3.6,3.6,37,0.00,,,0.00,VWS V14.01,2013-01-15 21:04:00,
2013-01-15 16:06:00,38.1,14.2,0.00,NE,38,0.0,0.0,37,0.00,,,0.00,VWS V14.01,2013-01-15 21:06:00,
2013-01-15 16:09:00,38.1,14.2,0.00,NNW,339,2.7,4.0,37,0.00,,,0.00,VWS V14.01,2013-01-15 21:09:00,
2013-01-15 16:10:00,38.1,14.2,0.00,NNW,335,2.7,2.7,37,0.00,,,0.00,VWS V14.01,2013-01-15 21:10:00,
2013-01-15 16:11:00,37.9,14.0,0.00,NNW,334,0.0,0.0,37,0.00,,,0.00,VWS V14.01,2013-01-15 21:11:00,
2013-01-15 16:14:00,37.9,12.7,0.00,North,349,2.2,2.7,35,0.00,,,0.00,VWS V14.01,2013-01-15 21:14:00,
2013-01-15 16:15:00,37.9,12.7,0.00,North,4,3.6,4.0,35,0.00,,,0.00,VWS V14.01,2013-01-15 21:15:00,
2013-01-15 16:19:00,37.9,13.4,0.00,NNE,21,0.0,0.0,36,0.00,,,0.00,VWS V14.01,2013-01-15 21:19:00,
2013-01-15 16:20:00,37.9,13.4,0.00,ENE,72,3.1,3.1,36,0.00,,,0.00,VWS V14.01,2013-01-15 21:20:00,
2013-01-15 16:22:00,37.8,13.2,0.00,NE,34,0.0,2.7,36,0.00,,,0.00,VWS V14.01,2013-01-15 21:22:00,
2013-01-15 16:24:00,37.8,13.2,0.00,NNW,331,2.2,2.7,36,0.00,,,0.00,VWS V14.01,2013-01-15 21:24:00,
2013-01-15 16:25:00,37.8,13.2,0.00,NW,312,0.0,0.0,36,0.00,,,0.00,VWS V14.01,2013-01-15 21:25:00,
2013-01-15 16:26:00,37.8,13.2,0.00,WNW,300,3.6,3.6,36,0.00,,,0.00,VWS V14.01,2013-01-15 21:26:00,
2013-01-15 16:28:00,37.8,12.6,0.00,NNW,331,4.9,5.4,35,0.00,,,0.00,VWS V14.01,2013-01-15 21:28:00,
2013-01-15 16:29:00,37.8,12.6,0.00,NW,324,3.1,4.9,35,0.00,,,0.00,VWS V14.01,2013-01-15 21:29:00,
2013-01-15 16:32:00,37.8,13.2,0.00,NNW,342,0.0,0.0,36,0.00,,,0.00,VWS V14.01,2013-01-15 21:32:00,
2013-01-15 16:33:00,37.8,13.2,0.00,NNW,342,0.0,0.0,36,0.00,,,0.00,VWS V14.01,2013-01-15 21:33:00,
2013-01-15 16:34:00,37.6,13.1,0.00,NNW,344,0.0,0.0,36,0.00,,,0.00,VWS V14.01,2013-01-15 21:34:00,
2013-01-15 16:37:00,37.6,13.1,0.00,ENE,57,0.0,0.0,36,0.00,,,0.00,VWS V14.01,2013-01-15 21:37:00,
2013-01-15 16:38:00,37.6,13.1,0.00,NE,44,0.0,0.0,36,0.00,,,0.00,VWS V14.01,2013-01-15 21:38:00,
2013-01-15 16:39:00,37.6,13.1,0.00,NE,44,0.0,0.0,36,0.00,,,0.00,VWS V14.01,2013-01-15 21:39:00,
2013-01-15 16:43:00,37.6,13.1,0.00,NNE,23,0.0,0.0,36,0.00,,,0.00,VWS V14.01,2013-01-15 21:43:00,
2013-01-15 16:44:00,37.6,13.1,0.00,NNE,17,2.7,2.7,36,0.00,,,0.00,VWS V14.01,2013-01-15 21:44:00,
2013-01-15 16:46:00,37.6,12.4,0.00,ENE,62,3.6,3.6,35,0.00,,,0.00,VWS V14.01,2013-01-15 21:46:00,
2013-01-15 16:48:00,37.6,12.4,0.00,NE,53,2.2,2.2,35,0.00,,,0.00,VWS V14.01,2013-01-15 21:48:00,
2013-01-15 16:49:00,37.6,13.1,0.00,NE,51,0.0,0.0,36,0.00,,,0.00,VWS V14.01,2013-01-15 21:49:00,
2013-01-15 16:50:00,37.4,12.9,0.00,NE,51,0.0,0.0,36,0.00,,,0.00,VWS V14.01,2013-01-15 21:50:00,
2013-01-15 16:52:00,37.4,12.9,0.00,NE,51,0.0,0.0,36,0.00,,,0.00,VWS V14.01,2013-01-15 21:52:00,
2013-01-15 16:54:00,37.4,12.9,0.00,NE,51,0.0,0.0,36,0.00,,,0.00,VWS V14.01,2013-01-15 21:54:00,
2013-01-15 16:55:00,37.4,12.9,0.00,NNE,16,0.0,0.0,36,0.00,,,0.00,VWS V14.01,2013-01-15 21:55:00,
2013-01-15 16:58:00,37.4,12.9,0.00,NE,48,0.0,0.0,36,0.00,,,0.00,VWS V14.01,2013-01-15 21:58:00,
2013-01-15 17:00:00,37.4,12.9,0.00,NE,37,0.0,0.0,36,0.00,,,0.00,VWS V14.01,2013-01-15 22:00:00,
2013-01-15 17:01:00,37.4,12.9,0.00,NE,37,0.0,0.0,36,0.00,,,0.00,VWS V14.01,2013-01-15 22:01:00,
2013-01-15 17:03:00,37.4,12.9,0.00,NE,37,0.0,0.0,36,0.00,,,0.00,VWS V14.01,2013-01-15 22:03:00,
2013-01-15 17:05:00,37.4,12.9,0.00,NE,37,0.0,0.0,36,0.00,,,0.00,VWS V14.01,2013-01-15 22:05:00,
2013-01-15 17:06:00,37.4,12.9,0.00,NE,37,0.0,0.0,36,0.00,,,0.00,VWS V14.01,2013-01-15 22:06:00,
2013-01-15 17:07:00,37.4,12.9,0.00,NE,37,0.0,0.0,36,0.00,,,0.00,VWS V14.01,2013-01-15 22:07:00,
2013-01-15 17:08:00,37.4,12.9,0.00,NE,37,0.0,0.0,36,0.00,,,0.00,VWS V14.01,2013-01-15 22:08:00,
2013-01-15 17:11:00,37.4,13.5,0.00,NE,37,0.0,0.0,37,0.00,,,0.00,VWS V14.01,2013-01-15 22:11:00,
2013-01-15 17:13:00,37.4,13.5,0.00,NE,37,0.0,0.0,37,0.00,,,0.00,VWS V14.01,2013-01-15 22:13:00,
2013-01-15 17:14:00,37.4,13.5,0.00,NE,37,0.0,0.0,37,0.00,,,0.00,VWS V14.01,2013-01-15 22:14:00,
2013-01-15 17:17:00,37.4,13.5,0.00,NE,37,0.0,0.0,37,0.00,,,0.00,VWS V14.01,2013-01-15 22:17:00,
2013-01-15 17:18:00,37.4,13.5,0.00,NE,37,0.0,0.0,37,0.00,,,0.00,VWS V14.01,2013-01-15 22:18:00,
2013-01-15 17:22:00,37.4,13.5,0.00,NE,37,0.0,0.0,37,0.00,,,0.00,VWS V14.01,2013-01-15 22:22:00,
2013-01-15 17:23:00,37.4,13.5,0.00,NE,37,0.0,0.0,37,0.00,,,0.00,VWS V14.01,2013-01-15 22:23:00,
2013-01-15 17:24:00,37.2,13.4,0.00,NE,37,0.0,0.0,37,0.00,,,0.00,VWS V14.01,2013-01-15 22:24:00,
2013-01-15 17:29:00,37.2,13.4,0.00,NE,37,0.0,0.0,37,0.00,,,0.00,VWS V14.01,2013-01-15 22:29:00,
2013-01-15 17:30:00,37.2,13.4,0.00,NE,37,0.0,0.0,37,0.00,,,0.00,VWS V14.01,2013-01-15 22:30:00,
2013-01-15 17:33:00,37.2,13.4,0.00,NE,37,0.0,0.0,37,0.00,,,0.00,VWS V14.01,2013-01-15 22:33:00,
2013-01-15 17:34:00,37.2,13.4,0.00,NE,37,0.0,0.0,37,0.00,,,0.00,VWS V14.01,2013-01-15 22:34:00,
2013-01-15 17:37:00,37.2,13.4,0.00,NE,37,0.0,0.0,37,0.00,,,0.00,VWS V14.01,2013-01-15 22:37:00,
2013-01-15 17:39:00,37.2,12.7,0.00,NE,37,0.0,0.0,36,0.00,,,0.00,VWS V14.01,2013-01-15 22:39:00,
2013-01-15 17:40:00,37.2,12.7,0.00,North,357,0.0,0.0,36,0.00,,,0.00,VWS V14.01,2013-01-15 22:40:00,
2013-01-15 17:42:00,37.2,12.7,0.00,NW,325,0.0,0.0,36,0.00,,,0.00,VWS V14.01,2013-01-15 22:42:00,
2013-01-15 17:44:00,37.2,13.4,0.00,ENE,74,2.2,2.7,37,0.00,,,0.00,VWS V14.01,2013-01-15 22:44:00,
2013-01-15 17:45:00,37.2,13.4,0.00,East,91,0.0,0.0,37,0.00,,,0.00,VWS V14.01,2013-01-15 22:45:00,
2013-01-15 17:49:00,37.2,13.4,0.00,North,9,2.2,2.7,37,0.00,,,0.00,VWS V14.01,2013-01-15 22:49:00,
2013-01-15 17:50:00,37.2,13.4,0.00,North,1,2.2,2.2,37,0.00,,,0.00,VWS V14.01,2013-01-15 22:50:00,
2013-01-15 17:51:00,37.4,13.5,0.00,North,1,0.0,2.2,37,0.00,,,0.00,VWS V14.01,2013-01-15 22:51:00,
2013-01-15 17:55:00,37.4,13.5,0.00,North,357,0.0,0.0,37,0.00,,,0.00,VWS V14.01,2013-01-15 22:55:00,
2013-01-15 17:56:00,37.4,13.5,0.00,North,5,2.2,2.2,37,0.00,,,0.00,VWS V14.01,2013-01-15 22:56:00,
2013-01-15 18:00:00,37.4,13.5,0.00,NNE,19,0.0,0.0,37,0.00,,,0.00,VWS V14.01,2013-01-15 23:00:00,
2013-01-15 18:01:00,37.4,13.5,0.00,NNE,19,0.0,0.0,37,0.00,,,0.00,VWS V14.01,2013-01-15 23:01:00,
2013-01-15 18:02:00,37.4,13.5,0.00,North,10,0.0,0.0,37,0.00,,,0.00,VWS V14.01,2013-01-15 23:02:00,
2013-01-15 18:06:00,37.4,13.5,0.00,North,11,0.0,0.0,37,0.00,,,0.00,VWS V14.01,2013-01-15 23:06:00,
2013-01-15 18:08:00,37.4,13.5,0.00,WNW,298,0.0,0.0,37,0.00,,,0.00,VWS V14.01,2013-01-15 23:08:00,
2013-01-15 18:10:00,37.4,13.5,0.00,WNW,302,0.0,0.0,37,0.00,,,0.00,VWS V14.01,2013-01-15 23:10:00,
2013-01-15 18:11:00,37.4,13.5,0.00,WNW,302,0.0,0.0,37,0.00,,,0.00,VWS V14.01,2013-01-15 23:11:00,
2013-01-15 18:13:00,37.4,13.5,0.00,WNW,302,0.0,0.0,37,0.00,,,0.00,VWS V14.01,2013-01-15 23:13:00,
2013-01-15 18:17:00,37.4,13.5,0.00,WNW,302,0.0,0.0,37,0.00,,,0.00,VWS V14.01,2013-01-15 23:17:00,
2013-01-15 18:18:00,37.4,13.5,0.00,WNW,302,0.0,0.0,37,0.00,,,0.00,VWS V14.01,2013-01-15 23:18:00,
2013-01-15 18:19:00,37.4,13.5,0.00,WNW,302,0.0,0.0,37,0.00,,,0.00,VWS V14.01,2013-01-15 23:19:00,
2013-01-15 18:20:00,37.4,13.5,0.00,WNW,302,0.0,0.0,37,0.00,,,0.00,VWS V14.01,2013-01-15 23:20:00,
2013-01-15 18:24:00,37.4,13.5,0.00,WNW,302,0.0,0.0,37,0.00,,,0.00,VWS V14.01,2013-01-15 23:24:00,
2013-01-15 18:25:00,37.4,13.5,0.00,WNW,302,0.0,0.0,37,0.00,,,0.00,VWS V14.01,2013-01-15 23:25:00,
2013-01-15 18:26:00,37.4,13.5,0.00,North,349,0.0,0.0,37,0.00,,,0.00,VWS V14.01,2013-01-15 23:26:00,
2013-01-15 18:29:00,37.4,13.5,0.00,North,349,0.0,0.0,37,0.00,,,0.00,VWS V14.01,2013-01-15 23:29:00,
2013-01-15 18:31:00,37.4,13.5,0.00,North,349,0.0,0.0,37,0.00,,,0.00,VWS V14.01,2013-01-15 23:31:00,
2013-01-15 18:33:00,37.4,13.5,0.00,North,349,0.0,0.0,37,0.00,,,0.00,VWS V14.01,2013-01-15 23:33:00,
2013-01-15 18:34:00,37.4,13.5,0.00,North,349,0.0,0.0,37,0.00,,,0.00,VWS V14.01,2013-01-15 23:34:00,
2013-01-15 18:36:00,37.4,13.5,0.00,North,349,0.0,0.0,37,0.00,,,0.00,VWS V14.01,2013-01-15 23:36:00,
2013-01-15 18:37:00,37.4,13.5,0.00,North,349,0.0,0.0,37,0.00,,,0.00,VWS V14.01,2013-01-15 23:37:00,
2013-01-15 18:39:00,37.2,14.0,0.00,North,349,0.0,0.0,38,0.00,,,0.00,VWS V14.01,2013-01-15 23:39:00,
2013-01-15 18:40:00,37.2,14.0,0.00,North,349,0.0,0.0,38,0.00,,,0.00,VWS V14.01,2013-01-15 23:40:00,
2013-01-15 18:41:00,37.2,14.0,0.00,North,349,0.0,0.0,38,0.00,,,0.00,VWS V14.01,2013-01-15 23:41:00,
2013-01-15 18:42:00,37.2,14.0,0.00,North,349,0.0,0.0,38,0.00,,,0.00,VWS V14.01,2013-01-15 23:42:00,
2013-01-15 18:45:00,37.2,14.0,0.00,North,349,0.0,0.0,38,0.00,,,0.00,VWS V14.01,2013-01-15 23:45:00,
2013-01-15 18:46:00,37.2,14.0,0.00,North,349,0.0,0.0,38,0.00,,,0.00,VWS V14.01,2013-01-15 23:46:00,
2013-01-15 18:50:00,37.2,14.0,0.00,North,349,0.0,0.0,38,0.00,,,0.00,VWS V14.01,2013-01-15 23:50:00,
2013-01-15 18:51:00,37.2,14.0,0.00,North,349,0.0,0.0,38,0.00,,,0.00,VWS V14.01,2013-01-15 23:51:00,
2013-01-15 18:52:00,37.2,14.0,0.00,North,349,0.0,0.0,38,0.00,,,0.00,VWS V14.01,2013-01-15 23:52:00,
2013-01-15 18:55:00,37.2,14.0,0.00,North,349,0.0,0.0,38,0.00,,,0.00,VWS V14.01,2013-01-15 23:55:00,
2013-01-15 18:57:00,37.2,14.0,0.00,North,349,0.0,0.0,38,0.00,,,0.00,VWS V14.01,2013-01-15 23:57:00,
2013-01-15 18:59:00,37.2,14.0,0.00,North,349,0.0,0.0,38,0.00,,,0.00,VWS V14.01,2013-01-15 23:59:00,
2013-01-15 19:00:00,37.2,14.0,0.00,North,349,0.0,0.0,38,0.00,,,0.00,VWS V14.01,2013-01-16 00:00:00,
2013-01-15 19:01:00,37.2,14.0,0.00,North,349,0.0,0.0,38,0.00,,,0.00,VWS V14.01,2013-01-16 00:01:00,
2013-01-15 19:03:00,37.2,14.0,0.00,North,6,0.0,0.0,38,0.00,,,0.00,VWS V14.01,2013-01-16 00:03:00,
2013-01-15 19:04:00,37.2,14.0,0.00,North,6,0.0,0.0,38,0.00,,,0.00,VWS V14.01,2013-01-16 00:04:00,
2013-01-15 19:06:00,37.2,14.0,0.00,North,6,0.0,0.0,38,0.00,,,0.00,VWS V14.01,2013-01-16 00:06:00,
2013-01-15 19:08:00,37.2,14.0,0.00,North,6,0.0,0.0,38,0.00,,,0.00,VWS V14.01,2013-01-16 00:08:00,
2013-01-15 19:09:00,37.2,14.0,0.00,North,6,0.0,0.0,38,0.00,,,0.00,VWS V14.01,2013-01-16 00:09:00,
2013-01-15 19:11:00,37.2,14.0,0.00,North,6,0.0,0.0,38,0.00,,,0.00,VWS V14.01,2013-01-16 00:11:00,
2013-01-15 19:14:00,37.2,14.0,0.00,North,6,0.0,0.0,38,0.00,,,0.00,VWS V14.01,2013-01-16 00:14:00,
2013-01-15 19:17:00,37.2,14.0,0.00,North,6,0.0,0.0,38,0.00,,,0.00,VWS V14.01,2013-01-16 00:17:00,
2013-01-15 19:18:00,37.2,14.0,0.00,North,6,0.0,0.0,38,0.00,,,0.00,VWS V14.01,2013-01-16 00:18:00,
2013-01-15 19:19:00,37.2,14.0,0.00,North,6,0.0,0.0,38,0.00,,,0.00,VWS V14.01,2013-01-16 00:19:00,
2013-01-15 19:23:00,37.0,14.4,0.00,North,6,0.0,0.0,39,0.00,,,0.00,VWS V14.01,2013-01-16 00:23:00,
2013-01-15 19:24:00,37.0,14.4,0.00,North,6,0.0,0.0,39,0.00,,,0.00,VWS V14.01,2013-01-16 00:24:00,
2013-01-15 19:25:00,37.0,14.4,0.00,North,6,0.0,0.0,39,0.00,,,0.00,VWS V14.01,2013-01-16 00:25:00,
2013-01-15 19:29:00,37.0,14.4,0.00,North,6,0.0,0.0,39,0.00,,,0.00,VWS V14.01,2013-01-16 00:29:00,
2013-01-15 19:30:00,37.0,14.4,0.00,North,6,0.0,0.0,39,0.00,,,0.00,VWS V14.01,2013-01-16 00:30:00,
2013-01-15 19:32:00,37.0,14.4,0.00,North,6,0.0,0.0,39,0.00,,,0.00,VWS V14.01,2013-01-16 00:32:00,
2013-01-15 19:35:00,37.0,14.4,0.00,North,6,0.0,0.0,39,0.00,,,0.00,VWS V14.01,2013-01-16 00:35:00,
2013-01-15 19:36:00,37.0,14.4,0.00,North,6,0.0,0.0,39,0.00,,,0.00,VWS V14.01,2013-01-16 00:36:00,
2013-01-15 19:37:00,37.0,14.4,0.00,North,6,0.0,0.0,39,0.00,,,0.00,VWS V14.01,2013-01-16 00:37:00,
2013-01-15 19:41:00,37.0,14.4,0.00,North,6,0.0,0.0,39,0.00,,,0.00,VWS V14.01,2013-01-16 00:41:00,
2013-01-15 19:43:00,37.0,14.4,0.00,North,6,0.0,0.0,39,0.00,,,0.00,VWS V14.01,2013-01-16 00:43:00,
2013-01-15 19:44:00,37.0,14.4,0.00,North,6,0.0,0.0,39,0.00,,,0.00,VWS V14.01,2013-01-16 00:44:00,
2013-01-15 19:46:00,37.0,14.4,0.00,North,6,0.0,0.0,39,0.00,,,0.00,VWS V14.01,2013-01-16 00:46:00,
2013-01-15 19:49:00,37.0,14.4,0.00,North,6,0.0,0.0,39,0.00,,,0.00,VWS V14.01,2013-01-16 00:49:00,
2013-01-15 19:51:00,37.0,14.4,0.00,North,6,0.0,0.0,39,0.00,,,0.00,VWS V14.01,2013-01-16 00:51:00,
2013-01-15 19:52:00,37.0,14.4,0.00,North,6,0.0,0.0,39,0.00,,,0.00,VWS V14.01,2013-01-16 00:52:00,
2013-01-15 19:53:00,37.0,14.4,0.00,North,6,0.0,0.0,39,0.00,,,0.00,VWS V14.01,2013-01-16 00:53:00,
2013-01-15 19:54:00,37.0,14.4,0.00,North,6,0.0,0.0,39,0.00,,,0.00,VWS V14.01,2013-01-16 00:54:00,
2013-01-15 19:57:00,37.0,14.4,0.00,North,7,0.0,0.0,39,0.00,,,0.00,VWS V14.01,2013-01-16 00:57:00,
2013-01-15 19:59:00,37.0,14.4,0.00,North,6,0.0,0.0,39,0.00,,,0.00,VWS V14.01,2013-01-16 00:59:00,
2013-01-15 20:02:00,37.0,14.4,0.00,North,6,0.0,0.0,39,0.00,,,0.00,VWS V14.01,2013-01-16 01:02:00,
2013-01-15 20:04:00,37.0,14.4,0.00,North,6,0.0,0.0,39,0.00,,,0.00,VWS V14.01,2013-01-16 01:04:00,
2013-01-15 20:05:00,37.0,14.4,0.00,North,6,0.0,0.0,39,0.00,,,0.00,VWS V14.01,2013-01-16 01:05:00,
2013-01-15 20:07:00,37.0,14.4,0.00,North,6,0.0,0.0,39,0.00,,,0.00,VWS V14.01,2013-01-16 01:07:00,
2013-01-15 20:08:00,37.0,14.4,0.00,North,6,0.0,0.0,39,0.00,,,0.00,VWS V14.01,2013-01-16 01:08:00,
2013-01-15 20:09:00,37.0,15.0,0.00,North,6,0.0,0.0,40,0.00,,,0.00,VWS V14.01,2013-01-16 01:09:00,
2013-01-15 20:11:00,37.0,15.0,0.00,North,6,0.0,0.0,40,0.00,,,0.00,VWS V14.01,2013-01-16 01:11:00,
2013-01-15 20:13:00,37.0,15.0,0.00,North,6,0.0,0.0,40,0.00,,,0.00,VWS V14.01,2013-01-16 01:13:00,
2013-01-15 20:14:00,37.0,15.0,0.00,North,6,0.0,0.0,40,0.00,,,0.00,VWS V14.01,2013-01-16 01:14:00,
2013-01-15 20:16:00,37.0,15.0,0.00,North,6,0.0,0.0,40,0.00,,,0.00,VWS V14.01,2013-01-16 01:16:00,
2013-01-15 20:18:00,37.0,15.0,0.00,North,6,0.0,0.0,40,0.00,,,0.00,VWS V14.01,2013-01-16 01:18:00,
2013-01-15 20:20:00,37.0,15.0,0.00,North,6,0.0,0.0,40,0.00,,,0.00,VWS V14.01,2013-01-16 01:20:00,
2013-01-15 20:21:00,37.0,15.0,0.00,North,6,0.0,0.0,40,0.00,,,0.00,VWS V14.01,2013-01-16 01:21:00,
2013-01-15 20:23:00,36.9,14.8,0.00,North,6,0.0,0.0,40,0.00,,,0.00,VWS V14.01,2013-01-16 01:23:00,
2013-01-15 20:25:00,36.9,14.8,0.00,North,6,0.0,0.0,40,0.00,,,0.00,VWS V14.01,2013-01-16 01:25:00,
2013-01-15 20:26:00,36.9,14.8,0.00,North,6,0.0,0.0,40,0.00,,,0.00,VWS V14.01,2013-01-16 01:26:00,
2013-01-15 20:30:00,36.9,14.8,0.00,North,6,0.0,0.0,40,0.00,,,0.00,VWS V14.01,2013-01-16 01:30:00,
2013-01-15 20:31:00,36.7,14.6,0.00,North,6,0.0,0.0,40,0.00,,,0.00,VWS V14.01,2013-01-16 01:31:00,
2013-01-15 20:33:00,36.7,14.6,0.00,North,6,0.0,0.0,40,0.00,,,0.00,VWS V14.01,2013-01-16 01:33:00,
2013-01-15 20:35:00,36.7,14.6,0.00,North,6,0.0,0.0,40,0.00,,,0.00,VWS V14.01,2013-01-16 01:35:00,
2013-01-15 20:36:00,36.7,14.6,0.00,North,6,0.0,0.0,40,0.00,,,0.00,VWS V14.01,2013-01-16 01:36:00,
2013-01-15 20:37:00,36.7,14.6,0.00,North,6,0.0,0.0,40,0.00,,,0.00,VWS V14.01,2013-01-16 01:37:00,
2013-01-15 20:38:00,36.7,14.6,0.00,North,6,0.0,0.0,40,0.00,,,0.00,VWS V14.01,2013-01-16 01:38:00,
2013-01-15 20:40:00,36.5,14.5,0.00,North,6,0.0,0.0,40,0.00,,,0.00,VWS V14.01,2013-01-16 01:40:00,
2013-01-15 20:42:00,36.5,14.5,0.00,North,6,0.0,0.0,40,0.00,,,0.00,VWS V14.01,2013-01-16 01:42:00,
2013-01-15 20:43:00,36.5,14.5,0.00,North,6,0.0,0.0,40,0.00,,,0.00,VWS V14.01,2013-01-16 01:43:00,
2013-01-15 20:44:00,36.5,14.5,0.00,North,6,0.0,0.0,40,0.00,,,0.00,VWS V14.01,2013-01-16 01:44:00,
2013-01-15 20:46:00,36.5,14.5,0.00,North,6,0.0,0.0,40,0.00,,,0.00,VWS V14.01,2013-01-16 01:46:00,
2013-01-15 20:48:00,36.5,14.5,0.00,North,6,0.0,0.0,40,0.00,,,0.00,VWS V14.01,2013-01-16 01:48:00,
2013-01-15 20:51:00,36.3,14.9,0.00,North,7,0.0,0.0,41,0.00,,,0.00,VWS V14.01,2013-01-16 01:51:00,
2013-01-15 20:53:00,36.3,14.9,0.00,North,7,0.0,0.0,41,0.00,,,0.00,VWS V14.01,2013-01-16 01:53:00,
2013-01-15 20:54:00,36.3,14.9,0.00,North,7,0.0,0.0,41,0.00,,,0.00,VWS V14.01,2013-01-16 01:54:00,
2013-01-15 20:57:00,36.3,14.9,0.00,North,7,0.0,0.0,41,0.00,,,0.00,VWS V14.01,2013-01-16 01:57:00,
2013-01-15 20:58:00,36.3,14.9,0.00,North,7,0.0,0.0,41,0.00,,,0.00,VWS V14.01,2013-01-16 01:58:00,
2013-01-15 20:59:00,36.3,14.9,0.00,North,7,0.0,0.0,41,0.00,,,0.00,VWS V14.01,2013-01-16 01:59:00,
2013-01-15 21:01:00,36.3,14.9,0.00,North,7,0.0,0.0,41,0.00,,,0.00,VWS V14.01,2013-01-16 02:01:00,
2013-01-15 21:03:00,36.3,14.9,0.00,North,7,0.0,0.0,41,0.00,,,0.00,VWS V14.01,2013-01-16 02:03:00,
2013-01-15 21:04:00,36.3,14.9,0.00,North,7,0.0,0.0,41,0.00,,,0.00,VWS V14.01,2013-01-16 02:04:00,
2013-01-15 21:08:00,36.1,14.7,0.00,North,7,0.0,0.0,41,0.00,,,0.00,VWS V14.01,2013-01-16 02:08:00,
2013-01-15 21:09:00,36.1,14.7,0.00,North,7,0.0,0.0,41,0.00,,,0.00,VWS V14.01,2013-01-16 02:09:00,
2013-01-15 21:10:00,36.1,14.7,0.00,North,7,0.0,0.0,41,0.00,,,0.00,VWS V14.01,2013-01-16 02:10:00,
2013-01-15 21:13:00,36.1,14.7,0.00,North,7,0.0,0.0,41,0.00,,,0.00,VWS V14.01,2013-01-16 02:13:00,
2013-01-15 21:15:00,36.1,14.7,0.00,North,7,0.0,0.0,41,0.00,,,0.00,VWS V14.01,2013-01-16 02:15:00,
2013-01-15 21:16:00,36.1,14.7,0.00,North,7,0.0,0.0,41,0.00,,,0.00,VWS V14.01,2013-01-16 02:16:00,
2013-01-15 21:17:00,36.0,14.6,0.00,North,7,0.0,0.0,41,0.00,,,0.00,VWS V14.01,2013-01-16 02:17:00,
2013-01-15 21:19:00,36.0,14.6,0.00,North,7,0.0,0.0,41,0.00,,,0.00,VWS V14.01,2013-01-16 02:19:00,
2013-01-15 21:21:00,36.0,14.6,0.00,North,7,0.0,0.0,41,0.00,,,0.00,VWS V14.01,2013-01-16 02:21:00,
2013-01-15 21:23:00,35.8,14.4,0.00,North,7,0.0,0.0,41,0.00,,,0.00,VWS V14.01,2013-01-16 02:23:00,
2013-01-15 21:25:00,35.8,14.9,0.00,North,7,0.0,0.0,42,0.00,,,0.00,VWS V14.01,2013-01-16 02:25:00,
2013-01-15 21:26:00,35.8,14.9,0.00,North,7,0.0,0.0,42,0.00,,,0.00,VWS V14.01,2013-01-16 02:26:00,
2013-01-15 21:29:00,35.8,14.9,0.00,North,7,0.0,0.0,42,0.00,,,0.00,VWS V14.01,2013-01-16 02:29:00,
2013-01-15 21:30:00,35.8,14.9,0.00,North,7,0.0,0.0,42,0.00,,,0.00,VWS V14.01,2013-01-16 02:30:00,
2013-01-15 21:31:00,35.8,14.9,0.00,North,7,0.0,0.0,42,0.00,,,0.00,VWS V14.01,2013-01-16 02:31:00,
2013-01-15 21:35:00,35.8,14.9,0.00,North,7,0.0,0.0,42,0.00,,,0.00,VWS V14.01,2013-01-16 02:35:00,
2013-01-15 21:36:00,35.8,14.9,0.00,North,7,0.0,0.0,42,0.00,,,0.00,VWS V14.01,2013-01-16 02:36:00,
2013-01-15 21:37:00,35.6,14.8,0.00,North,7,0.0,0.0,42,0.00,,,0.00,VWS V14.01,2013-01-16 02:37:00,
2013-01-15 21:40:00,35.6,14.8,0.00,North,7,0.0,0.0,42,0.00,,,0.00,VWS V14.01,2013-01-16 02:40:00,
2013-01-15 21:41:00,35.6,14.8,0.00,North,7,0.0,0.0,42,0.00,,,0.00,VWS V14.01,2013-01-16 02:41:00,
2013-01-15 21:42:00,35.6,15.3,0.00,North,7,0.0,0.0,43,0.00,,,0.00,VWS V14.01,2013-01-16 02:42:00,
2013-01-15 21:45:00,35.6,15.3,0.00,North,7,0.0,0.0,43,0.00,,,0.00,VWS V14.01,2013-01-16 02:45:00,
2013-01-15 21:46:00,35.6,15.3,0.00,North,7,0.0,0.0,43,0.00,,,0.00,VWS V14.01,2013-01-16 02:46:00,
2013-01-15 21:47:00,35.4,15.2,0.00,North,7,0.0,0.0,43,0.00,,,0.00,VWS V14.01,2013-01-16 02:47:00,
2013-01-15 21:48:00,35.4,15.2,0.00,North,7,0.0,0.0,43,0.00,,,0.00,VWS V14.01,2013-01-16 02:48:00,
2013-01-15 21:51:00,35.4,15.7,0.00,North,7,0.0,0.0,44,0.00,,,0.00,VWS V14.01,2013-01-16 02:51:00,
2013-01-15 21:52:00,35.4,15.7,0.00,North,7,0.0,0.0,44,0.00,,,0.00,VWS V14.01,2013-01-16 02:52:00,
2013-01-15 21:55:00,35.4,15.7,0.00,North,7,0.0,0.0,44,0.00,,,0.00,VWS V14.01,2013-01-16 02:55:00,
2013-01-15 21:56:00,35.4,16.2,0.00,North,7,0.0,0.0,45,0.00,,,0.00,VWS V14.01,2013-01-16 02:56:00,
2013-01-15 21:58:00,35.2,16.0,0.00,North,7,0.0,0.0,45,0.00,,,0.00,VWS V14.01,2013-01-16 02:58:00,
2013-01-15 21:59:00,35.2,16.0,0.00,North,7,0.0,0.0,45,0.00,,,0.00,VWS V14.01,2013-01-16 02:59:00,
2013-01-15 22:01:00,35.2,16.0,0.00,North,7,0.0,0.0,45,0.00,,,0.00,VWS V14.01,2013-01-16 03:01:00,
2013-01-15 22:02:00,35.2,16.0,0.00,North,7,0.0,0.0,45,0.00,,,0.00,VWS V14.01,2013-01-16 03:02:00,
2013-01-15 22:04:00,35.1,15.9,0.00,North,7,0.0,0.0,45,0.00,,,0.00,VWS V14.01,2013-01-16 03:04:00,
2013-01-15 22:07:00,35.1,15.9,0.00,North,7,0.0,0.0,45,0.00,,,0.00,VWS V14.01,2013-01-16 03:07:00,
2013-01-15 22:08:00,35.1,15.9,0.00,North,7,0.0,0.0,45,0.00,,,0.00,VWS V14.01,2013-01-16 03:08:00,
2013-01-15 22:09:00,35.1,15.9,0.00,North,7,0.0,0.0,45,0.00,,,0.00,VWS V14.01,2013-01-16 03:09:00,
2013-01-15 22:10:00,35.1,16.4,0.00,North,7,0.0,0.0,46,0.00,,,0.00,VWS V14.01,2013-01-16 03:10:00,
2013-01-15 22:12:00,35.1,16.4,0.00,North,7,0.0,0.0,46,0.00,,,0.00,VWS V14.01,2013-01-16 03:12:00,
2013-01-15 22:13:00,35.1,16.4,0.00,North,7,0.0,0.0,46,0.00,,,0.00,VWS V14.01,2013-01-16 03:13:00,
2013-01-15 22:15:00,35.1,16.4,0.00,North,7,0.0,0.0,46,0.00,,,0.00,VWS V14.01,2013-01-16 03:15:00,
2013-01-15 22:18:00,34.9,16.2,0.00,North,7,0.0,0.0,46,0.00,,,0.00,VWS V14.01,2013-01-16 03:18:00,
2013-01-15 22:20:00,34.9,16.7,0.00,North,7,0.0,0.0,47,0.00,,,0.00,VWS V14.01,2013-01-16 03:20:00,
2013-01-15 22:21:00,34.9,16.7,0.00,North,7,0.0,0.0,47,0.00,,,0.00,VWS V14.01,2013-01-16 03:21:00,
2013-01-15 22:23:00,34.9,16.2,0.00,North,7,0.0,0.0,46,0.00,,,0.00,VWS V14.01,2013-01-16 03:23:00,
2013-01-15 22:26:00,34.9,16.7,0.00,North,7,0.0,0.0,47,0.00,,,0.00,VWS V14.01,2013-01-16 03:26:00,
2013-01-15 22:29:00,34.7,16.5,0.00,North,7,0.0,0.0,47,0.00,,,0.00,VWS V14.01,2013-01-16 03:29:00,
2013-01-15 22:31:00,34.9,17.7,0.00,North,7,0.0,0.0,49,0.00,,,0.00,VWS V14.01,2013-01-16 03:31:00,
2013-01-15 22:33:00,34.7,17.5,0.00,North,7,0.0,0.0,49,0.00,,,0.00,VWS V14.01,2013-01-16 03:33:00,
2013-01-15 22:35:00,34.7,17.5,0.00,North,7,0.0,0.0,49,0.00,,,0.00,VWS V14.01,2013-01-16 03:35:00,
2013-01-15 22:36:00,34.7,17.5,0.00,North,7,0.0,0.0,49,0.00,,,0.00,VWS V14.01,2013-01-16 03:36:00,
2013-01-15 22:38:00,34.7,17.5,0.00,North,7,0.0,0.0,49,0.00,,,0.00,VWS V14.01,2013-01-16 03:38:00,
2013-01-15 22:39:00,34.7,17.5,0.00,North,7,0.0,0.0,49,0.00,,,0.00,VWS V14.01,2013-01-16 03:39:00,
2013-01-15 22:40:00,34.5,17.3,0.00,North,7,0.0,0.0,49,0.00,,,0.00,VWS V14.01,2013-01-16 03:40:00,
2013-01-15 22:41:00,34.5,17.3,0.00,North,7,0.0,0.0,49,0.00,,,0.00,VWS V14.01,2013-01-16 03:41:00,
2013-01-15 22:44:00,34.5,17.3,0.00,North,7,0.0,0.0,49,0.00,,,0.00,VWS V14.01,2013-01-16 03:44:00,
2013-01-15 22:45:00,34.5,17.3,0.00,North,7,0.0,0.0,49,0.00,,,0.00,VWS V14.01,2013-01-16 03:45:00,
2013-01-15 22:46:00,34.5,17.3,0.00,North,7,0.0,0.0,49,0.00,,,0.00,VWS V14.01,2013-01-16 03:46:00,
2013-01-15 22:48:00,34.5,17.3,0.00,North,7,0.0,0.0,49,0.00,,,0.00,VWS V14.01,2013-01-16 03:48:00,
2013-01-15 22:50:00,34.5,17.8,0.00,North,7,0.0,0.0,50,0.00,,,0.00,VWS V14.01,2013-01-16 03:50:00,
2013-01-15 22:51:00,34.3,17.6,0.00,North,7,0.0,0.0,50,0.00,,,0.00,VWS V14.01,2013-01-16 03:51:00,
2013-01-15 22:52:00,34.3,17.6,0.00,North,7,0.0,0.0,50,0.00,,,0.00,VWS V14.01,2013-01-16 03:52:00,
2013-01-15 22:55:00,34.3,17.6,0.00,North,7,0.0,0.0,50,0.00,,,0.00,VWS V14.01,2013-01-16 03:55:00,
2013-01-15 22:57:00,34.3,17.6,0.00,North,7,0.0,0.0,50,0.00,,,0.00,VWS V14.01,2013-01-16 03:57:00,
2013-01-15 23:01:00,34.3,17.6,0.00,North,7,0.0,0.0,50,0.00,,,0.00,VWS V14.01,2013-01-16 04:01:00,
2013-01-15 23:02:00,34.3,17.6,0.00,North,7,0.0,0.0,50,0.00,,,0.00,VWS V14.01,2013-01-16 04:02:00,
2013-01-15 23:03:00,34.3,17.6,0.00,North,7,0.0,0.0,50,0.00,,,0.00,VWS V14.01,2013-01-16 04:03:00,
2013-01-15 23:07:00,34.3,17.6,0.00,North,7,0.0,0.0,50,0.00,,,0.00,VWS V14.01,2013-01-16 04:07:00,
2013-01-15 23:08:00,34.3,18.1,0.00,North,7,0.0,0.0,51,0.00,,,0.00,VWS V14.01,2013-01-16 04:08:00,
2013-01-15 23:10:00,34.3,18.1,0.00,North,7,0.0,0.0,51,0.00,,,0.00,VWS V14.01,2013-01-16 04:10:00,
2013-01-15 23:12:00,34.2,17.9,0.00,North,7,0.0,0.0,51,0.00,,,0.00,VWS V14.01,2013-01-16 04:12:00,
2013-01-15 23:14:00,34.2,17.9,0.00,North,7,0.0,0.0,51,0.00,,,0.00,VWS V14.01,2013-01-16 04:14:00,
2013-01-15 23:15:00,34.2,17.9,0.00,North,7,0.0,0.0,51,0.00,,,0.00,VWS V14.01,2013-01-16 04:15:00,
2013-01-15 23:16:00,34.2,17.9,0.00,North,7,0.0,0.0,51,0.00,,,0.00,VWS V14.01,2013-01-16 04:16:00,
2013-01-15 23:18:00,34.2,17.9,0.00,North,7,0.0,0.0,51,0.00,,,0.00,VWS V14.01,2013-01-16 04:18:00,
2013-01-15 23:19:00,34.2,17.9,0.00,North,7,0.0,0.0,51,0.00,,,0.00,VWS V14.01,2013-01-16 04:19:00,
2013-01-15 23:20:00,34.2,17.9,0.00,North,7,0.0,0.0,51,0.00,,,0.00,VWS V14.01,2013-01-16 04:20:00,
2013-01-15 23:23:00,34.2,18.4,0.00,North,7,0.0,0.0,52,0.00,,,0.00,VWS V14.01,2013-01-16 04:23:00,
2013-01-15 23:24:00,34.2,18.4,0.00,North,7,0.0,0.0,52,0.00,,,0.00,VWS V14.01,2013-01-16 04:24:00,
2013-01-15 23:26:00,34.2,18.4,0.00,North,7,0.0,0.0,52,0.00,,,0.00,VWS V14.01,2013-01-16 04:26:00,
2013-01-15 23:29:00,34.2,18.4,0.00,North,7,0.0,0.0,52,0.00,,,0.00,VWS V14.01,2013-01-16 04:29:00,
2013-01-15 23:30:00,34.2,18.4,0.00,North,7,0.0,0.0,52,0.00,,,0.00,VWS V14.01,2013-01-16 04:30:00,
2013-01-15 23:32:00,34.2,18.4,0.00,North,7,0.0,0.0,52,0.00,,,0.00,VWS V14.01,2013-01-16 04:32:00,
2013-01-15 23:34:00,34.2,18.4,0.00,North,7,0.0,0.0,52,0.00,,,0.00,VWS V14.01,2013-01-16 04:34:00,
2013-01-15 23:35:00,34.0,18.2,0.00,North,7,0.0,0.0,52,0.00,,,0.00,VWS V14.01,2013-01-16 04:35:00,
2013-01-15 23:37:00,34.0,18.7,0.00,North,7,0.0,0.0,53,0.00,,,0.00,VWS V14.01,2013-01-16 04:37:00,
2013-01-15 23:39:00,34.0,18.7,0.00,North,7,0.0,0.0,53,0.00,,,0.00,VWS V14.01,2013-01-16 04:39:00,
2013-01-15 23:40:00,34.0,18.7,0.00,North,7,0.0,0.0,53,0.00,,,0.00,VWS V14.01,2013-01-16 04:40:00,
2013-01-15 23:41:00,34.0,18.7,0.00,North,7,0.0,0.0,53,0.00,,,0.00,VWS V14.01,2013-01-16 04:41:00,
2013-01-15 23:43:00,34.0,18.7,0.00,North,7,0.0,0.0,53,0.00,,,0.00,VWS V14.01,2013-01-16 04:43:00,
2013-01-15 23:45:00,34.0,18.7,0.00,North,7,0.0,0.0,53,0.00,,,0.00,VWS V14.01,2013-01-16 04:45:00,
2013-01-15 23:48:00,34.0,18.7,0.00,North,7,0.0,0.0,53,0.00,,,0.00,VWS V14.01,2013-01-16 04:48:00,
2013-01-15 23:50:00,34.0,18.7,0.00,NE,44,2.2,2.2,53,0.00,,,0.00,VWS V14.01,2013-01-16 04:50:00,
2013-01-15 23:51:00,34.0,18.7,0.00,North,1,3.1,3.1,53,0.00,,,0.00,VWS V14.01,2013-01-16 04:51:00,
2013-01-15 23:54:00,34.0,19.1,0.00,NNE,20,2.2,2.2,54,0.00,,,0.00,VWS V14.01,2013-01-16 04:54:00,
2013-01-15 23:55:00,34.0,19.1,0.00,NNE,20,0.0,0.0,54,0.00,,,0.00,VWS V14.01,2013-01-16 04:55:00,
2013-01-15 23:56:00,34.0,19.1,0.00,NNE,20,0.0,0.0,54,0.00,,,0.00,VWS V14.01,2013-01-16 04:56:00,
2013-01-15 23:57:00,34.0,19.5,0.00,NE,41,0.0,2.7,55,0.00,,,0.00,VWS V14.01,2013-01-16 04:57:00,